<?xml version="1.0" encoding="UTF-8" standalone="no" ?>
<gpx xmlns="http://www.topografix.com/GPX/1/1" xmlns:xsi="http://www.w3.org/2001/XMLSchema-instance" xsi:schemaLocation="http://www.topografix.com/GPX/1/1 http://www.topografix.com/GPX/1/1/gpx.xsd" version="1.1" creator="VisuGPX - https://www.visugpx.com">
  <metadata>
    <name>64 - RAQUETTES - Soum de Pombie - Depuis parking de la cabane de l'Araille plateau d'Anéou</name>
    <desc><![CDATA[Brouillard en début - soleil en haut - neige pourrie au retour]]></desc>
  </metadata>
  <wpt lat="42.8191" lon="-0.42472">
    <ele>1820.3684082031</ele>
    <name><![CDATA[001]]></name>
    <desc><![CDATA[20-MAR-15 10:31:59]]></desc>
    <cmt><![CDATA[20-MAR-15 10:31:59]]></cmt>
  </wpt>
  <trk>
    <name><![CDATA[ACTIVE LOG]]></name>
    <trkseg>
      <trkpt lat="42.8155" lon="-0.41753">
        <ele>1726.1845703125</ele>
        <time>2015-03-20T09:03:12Z</time>
      </trkpt>
      <trkpt lat="42.8155" lon="-0.41753">
        <ele>1726.1845703125</ele>
        <time>2015-03-20T09:03:13Z</time>
      </trkpt>
      <trkpt lat="42.8155" lon="-0.41752">
        <ele>1727.6264648438</ele>
        <time>2015-03-20T09:03:15Z</time>
      </trkpt>
      <trkpt lat="42.81551" lon="-0.41751">
        <ele>1726.6652832031</ele>
        <time>2015-03-20T09:03:33Z</time>
      </trkpt>
      <trkpt lat="42.81552" lon="-0.41751">
        <ele>1723.3005371094</ele>
        <time>2015-03-20T09:03:36Z</time>
      </trkpt>
      <trkpt lat="42.81552" lon="-0.41751">
        <ele>1727.6264648438</ele>
        <time>2015-03-20T09:03:37Z</time>
      </trkpt>
      <trkpt lat="42.81551" lon="-0.41753">
        <ele>1723.7810058594</ele>
        <time>2015-03-20T09:03:50Z</time>
      </trkpt>
      <trkpt lat="42.81551" lon="-0.41753">
        <ele>1723.7810058594</ele>
        <time>2015-03-20T09:03:51Z</time>
      </trkpt>
      <trkpt lat="42.81551" lon="-0.41753">
        <ele>1725.2231445312</ele>
        <time>2015-03-20T09:03:53Z</time>
      </trkpt>
      <trkpt lat="42.8155" lon="-0.41755">
        <ele>1724.7426757812</ele>
        <time>2015-03-20T09:04:58Z</time>
      </trkpt>
      <trkpt lat="42.8155" lon="-0.41754">
        <ele>1727.6264648438</ele>
        <time>2015-03-20T09:05:12Z</time>
      </trkpt>
      <trkpt lat="42.81552" lon="-0.41754">
        <ele>1726.6652832031</ele>
        <time>2015-03-20T09:05:35Z</time>
      </trkpt>
      <trkpt lat="42.81552" lon="-0.41753">
        <ele>1726.1845703125</ele>
        <time>2015-03-20T09:05:54Z</time>
      </trkpt>
      <trkpt lat="42.8155" lon="-0.41753">
        <ele>1726.1845703125</ele>
        <time>2015-03-20T09:06:15Z</time>
      </trkpt>
      <trkpt lat="42.81551" lon="-0.41753">
        <ele>1725.7038574219</ele>
        <time>2015-03-20T09:06:30Z</time>
      </trkpt>
      <trkpt lat="42.81552" lon="-0.41753">
        <ele>1725.7038574219</ele>
        <time>2015-03-20T09:06:54Z</time>
      </trkpt>
      <trkpt lat="42.81552" lon="-0.41752">
        <ele>1725.7038574219</ele>
        <time>2015-03-20T09:07:17Z</time>
      </trkpt>
      <trkpt lat="42.81553" lon="-0.41752">
        <ele>1725.2231445312</ele>
        <time>2015-03-20T09:07:32Z</time>
      </trkpt>
      <trkpt lat="42.81553" lon="-0.41753">
        <ele>1725.7038574219</ele>
        <time>2015-03-20T09:07:34Z</time>
      </trkpt>
      <trkpt lat="42.81541" lon="-0.41769">
        <ele>1727.1459960938</ele>
        <time>2015-03-20T09:07:50Z</time>
      </trkpt>
      <trkpt lat="42.81532" lon="-0.41795">
        <ele>1729.5490722656</ele>
        <time>2015-03-20T09:08:07Z</time>
      </trkpt>
      <trkpt lat="42.81526" lon="-0.41813">
        <ele>1729.5490722656</ele>
        <time>2015-03-20T09:08:21Z</time>
      </trkpt>
      <trkpt lat="42.81525" lon="-0.41816">
        <ele>1728.1071777344</ele>
        <time>2015-03-20T09:08:35Z</time>
      </trkpt>
      <trkpt lat="42.81524" lon="-0.41814">
        <ele>1729.5490722656</ele>
        <time>2015-03-20T09:09:02Z</time>
      </trkpt>
      <trkpt lat="42.81523" lon="-0.41815">
        <ele>1728.1071777344</ele>
        <time>2015-03-20T09:09:15Z</time>
      </trkpt>
      <trkpt lat="42.81524" lon="-0.41815">
        <ele>1730.9912109375</ele>
        <time>2015-03-20T09:09:22Z</time>
      </trkpt>
      <trkpt lat="42.81524" lon="-0.41815">
        <ele>1728.587890625</ele>
        <time>2015-03-20T09:09:25Z</time>
      </trkpt>
      <trkpt lat="42.81525" lon="-0.41816">
        <ele>1729.5490722656</ele>
        <time>2015-03-20T09:09:53Z</time>
      </trkpt>
      <trkpt lat="42.81524" lon="-0.4182">
        <ele>1728.587890625</ele>
        <time>2015-03-20T09:10:16Z</time>
      </trkpt>
      <trkpt lat="42.81517" lon="-0.41832">
        <ele>1729.068359375</ele>
        <time>2015-03-20T09:10:32Z</time>
      </trkpt>
      <trkpt lat="42.81506" lon="-0.41849">
        <ele>1726.6652832031</ele>
        <time>2015-03-20T09:10:52Z</time>
      </trkpt>
      <trkpt lat="42.81495" lon="-0.41858">
        <ele>1727.1459960938</ele>
        <time>2015-03-20T09:11:07Z</time>
      </trkpt>
      <trkpt lat="42.81493" lon="-0.4186">
        <ele>1725.7038574219</ele>
        <time>2015-03-20T09:11:09Z</time>
      </trkpt>
      <trkpt lat="42.81481" lon="-0.4187">
        <ele>1722.8198242188</ele>
        <time>2015-03-20T09:11:24Z</time>
      </trkpt>
      <trkpt lat="42.81462" lon="-0.4189">
        <ele>1720.8972167969</ele>
        <time>2015-03-20T09:11:46Z</time>
      </trkpt>
      <trkpt lat="42.81447" lon="-0.41905">
        <ele>1720.4165039062</ele>
        <time>2015-03-20T09:12:04Z</time>
      </trkpt>
      <trkpt lat="42.81431" lon="-0.41926">
        <ele>1719.9357910156</ele>
        <time>2015-03-20T09:12:24Z</time>
      </trkpt>
      <trkpt lat="42.81426" lon="-0.41949">
        <ele>1720.8972167969</ele>
        <time>2015-03-20T09:12:41Z</time>
      </trkpt>
      <trkpt lat="42.81425" lon="-0.41951">
        <ele>1720.4165039062</ele>
        <time>2015-03-20T09:12:57Z</time>
      </trkpt>
      <trkpt lat="42.81423" lon="-0.41953">
        <ele>1720.4165039062</ele>
        <time>2015-03-20T09:13:13Z</time>
      </trkpt>
      <trkpt lat="42.81418" lon="-0.41966">
        <ele>1720.4165039062</ele>
        <time>2015-03-20T09:13:25Z</time>
      </trkpt>
      <trkpt lat="42.81419" lon="-0.41971">
        <ele>1720.4165039062</ele>
        <time>2015-03-20T09:13:42Z</time>
      </trkpt>
      <trkpt lat="42.81419" lon="-0.41972">
        <ele>1720.4165039062</ele>
        <time>2015-03-20T09:13:59Z</time>
      </trkpt>
      <trkpt lat="42.81418" lon="-0.41978">
        <ele>1720.4165039062</ele>
        <time>2015-03-20T09:14:05Z</time>
      </trkpt>
      <trkpt lat="42.81405" lon="-0.42004">
        <ele>1720.8972167969</ele>
        <time>2015-03-20T09:14:25Z</time>
      </trkpt>
      <trkpt lat="42.81389" lon="-0.42031">
        <ele>1720.8972167969</ele>
        <time>2015-03-20T09:14:47Z</time>
      </trkpt>
      <trkpt lat="42.81372" lon="-0.42054">
        <ele>1721.3776855469</ele>
        <time>2015-03-20T09:15:08Z</time>
      </trkpt>
      <trkpt lat="42.81356" lon="-0.42074">
        <ele>1721.3776855469</ele>
        <time>2015-03-20T09:15:28Z</time>
      </trkpt>
      <trkpt lat="42.81357" lon="-0.42089">
        <ele>1720.4165039062</ele>
        <time>2015-03-20T09:15:44Z</time>
      </trkpt>
      <trkpt lat="42.81362" lon="-0.42094">
        <ele>1720.4165039062</ele>
        <time>2015-03-20T09:15:52Z</time>
      </trkpt>
      <trkpt lat="42.81376" lon="-0.42107">
        <ele>1721.8583984375</ele>
        <time>2015-03-20T09:16:10Z</time>
      </trkpt>
      <trkpt lat="42.81391" lon="-0.42121">
        <ele>1721.3776855469</ele>
        <time>2015-03-20T09:16:29Z</time>
      </trkpt>
      <trkpt lat="42.81396" lon="-0.42126">
        <ele>1721.8583984375</ele>
        <time>2015-03-20T09:16:42Z</time>
      </trkpt>
      <trkpt lat="42.81397" lon="-0.42127">
        <ele>1721.3776855469</ele>
        <time>2015-03-20T09:16:43Z</time>
      </trkpt>
      <trkpt lat="42.81403" lon="-0.42122">
        <ele>1721.3776855469</ele>
        <time>2015-03-20T09:16:59Z</time>
      </trkpt>
      <trkpt lat="42.81403" lon="-0.42123">
        <ele>1720.4165039062</ele>
        <time>2015-03-20T09:17:12Z</time>
      </trkpt>
      <trkpt lat="42.81414" lon="-0.42129">
        <ele>1721.3776855469</ele>
        <time>2015-03-20T09:17:25Z</time>
      </trkpt>
      <trkpt lat="42.81415" lon="-0.42128">
        <ele>1721.3776855469</ele>
        <time>2015-03-20T09:17:26Z</time>
      </trkpt>
      <trkpt lat="42.81421" lon="-0.42128">
        <ele>1720.8972167969</ele>
        <time>2015-03-20T09:17:31Z</time>
      </trkpt>
      <trkpt lat="42.81447" lon="-0.42122">
        <ele>1719.9357910156</ele>
        <time>2015-03-20T09:17:53Z</time>
      </trkpt>
      <trkpt lat="42.8146" lon="-0.42107">
        <ele>1721.8583984375</ele>
        <time>2015-03-20T09:18:09Z</time>
      </trkpt>
      <trkpt lat="42.81471" lon="-0.42093">
        <ele>1724.7426757812</ele>
        <time>2015-03-20T09:18:27Z</time>
      </trkpt>
      <trkpt lat="42.81483" lon="-0.4208">
        <ele>1726.1845703125</ele>
        <time>2015-03-20T09:18:46Z</time>
      </trkpt>
      <trkpt lat="42.81493" lon="-0.4207">
        <ele>1728.1071777344</ele>
        <time>2015-03-20T09:19:05Z</time>
      </trkpt>
      <trkpt lat="42.81495" lon="-0.42074">
        <ele>1729.5490722656</ele>
        <time>2015-03-20T09:19:10Z</time>
      </trkpt>
      <trkpt lat="42.81496" lon="-0.42076">
        <ele>1730.5104980469</ele>
        <time>2015-03-20T09:19:12Z</time>
      </trkpt>
      <trkpt lat="42.815" lon="-0.42083">
        <ele>1733.875</ele>
        <time>2015-03-20T09:19:21Z</time>
      </trkpt>
      <trkpt lat="42.81506" lon="-0.42082">
        <ele>1735.7976074219</ele>
        <time>2015-03-20T09:19:35Z</time>
      </trkpt>
      <trkpt lat="42.81509" lon="-0.42087">
        <ele>1736.7587890625</ele>
        <time>2015-03-20T09:19:54Z</time>
      </trkpt>
      <trkpt lat="42.81517" lon="-0.42103">
        <ele>1737.2395019531</ele>
        <time>2015-03-20T09:20:10Z</time>
      </trkpt>
      <trkpt lat="42.81523" lon="-0.42115">
        <ele>1738.2009277344</ele>
        <time>2015-03-20T09:20:23Z</time>
      </trkpt>
      <trkpt lat="42.81531" lon="-0.42131">
        <ele>1740.6042480469</ele>
        <time>2015-03-20T09:20:38Z</time>
      </trkpt>
      <trkpt lat="42.81533" lon="-0.42135">
        <ele>1742.0463867188</ele>
        <time>2015-03-20T09:20:42Z</time>
      </trkpt>
      <trkpt lat="42.81543" lon="-0.42153">
        <ele>1743.9689941406</ele>
        <time>2015-03-20T09:21:00Z</time>
      </trkpt>
      <trkpt lat="42.81553" lon="-0.42173">
        <ele>1744.9301757812</ele>
        <time>2015-03-20T09:21:20Z</time>
      </trkpt>
      <trkpt lat="42.81563" lon="-0.42188">
        <ele>1745.8916015625</ele>
        <time>2015-03-20T09:21:38Z</time>
      </trkpt>
      <trkpt lat="42.81576" lon="-0.42206">
        <ele>1747.8142089844</ele>
        <time>2015-03-20T09:21:58Z</time>
      </trkpt>
      <trkpt lat="42.8159" lon="-0.42219">
        <ele>1748.775390625</ele>
        <time>2015-03-20T09:22:17Z</time>
      </trkpt>
      <trkpt lat="42.81602" lon="-0.42229">
        <ele>1750.6979980469</ele>
        <time>2015-03-20T09:22:35Z</time>
      </trkpt>
      <trkpt lat="42.81614" lon="-0.42238">
        <ele>1752.1398925781</ele>
        <time>2015-03-20T09:22:53Z</time>
      </trkpt>
      <trkpt lat="42.8162" lon="-0.42243">
        <ele>1755.0239257812</ele>
        <time>2015-03-20T09:23:06Z</time>
      </trkpt>
      <trkpt lat="42.81625" lon="-0.42249">
        <ele>1758.388671875</ele>
        <time>2015-03-20T09:23:15Z</time>
      </trkpt>
      <trkpt lat="42.81638" lon="-0.42259">
        <ele>1760.7919921875</ele>
        <time>2015-03-20T09:23:35Z</time>
      </trkpt>
      <trkpt lat="42.8165" lon="-0.42268">
        <ele>1763.67578125</ele>
        <time>2015-03-20T09:23:54Z</time>
      </trkpt>
      <trkpt lat="42.81652" lon="-0.42272">
        <ele>1765.1179199219</ele>
        <time>2015-03-20T09:24:00Z</time>
      </trkpt>
      <trkpt lat="42.81661" lon="-0.42276">
        <ele>1768.0017089844</ele>
        <time>2015-03-20T09:24:10Z</time>
      </trkpt>
      <trkpt lat="42.81676" lon="-0.42285">
        <ele>1769.4438476562</ele>
        <time>2015-03-20T09:24:29Z</time>
      </trkpt>
      <trkpt lat="42.81677" lon="-0.42286">
        <ele>1769.4438476562</ele>
        <time>2015-03-20T09:24:30Z</time>
      </trkpt>
      <trkpt lat="42.81679" lon="-0.42288">
        <ele>1769.9243164062</ele>
        <time>2015-03-20T09:24:33Z</time>
      </trkpt>
      <trkpt lat="42.81685" lon="-0.42293">
        <ele>1770.4050292969</ele>
        <time>2015-03-20T09:24:41Z</time>
      </trkpt>
      <trkpt lat="42.81701" lon="-0.42305">
        <ele>1771.3662109375</ele>
        <time>2015-03-20T09:25:00Z</time>
      </trkpt>
      <trkpt lat="42.81713" lon="-0.42314">
        <ele>1771.8469238281</ele>
        <time>2015-03-20T09:25:16Z</time>
      </trkpt>
      <trkpt lat="42.81727" lon="-0.42324">
        <ele>1773.7697753906</ele>
        <time>2015-03-20T09:25:33Z</time>
      </trkpt>
      <trkpt lat="42.81727" lon="-0.42325">
        <ele>1774.2504882812</ele>
        <time>2015-03-20T09:25:54Z</time>
      </trkpt>
      <trkpt lat="42.81737" lon="-0.42335">
        <ele>1776.1730957031</ele>
        <time>2015-03-20T09:26:11Z</time>
      </trkpt>
      <trkpt lat="42.81748" lon="-0.42345">
        <ele>1779.0568847656</ele>
        <time>2015-03-20T09:26:27Z</time>
      </trkpt>
      <trkpt lat="42.81761" lon="-0.42355">
        <ele>1781.4602050781</ele>
        <time>2015-03-20T09:26:45Z</time>
      </trkpt>
      <trkpt lat="42.81771" lon="-0.4236">
        <ele>1782.9020996094</ele>
        <time>2015-03-20T09:27:01Z</time>
      </trkpt>
      <trkpt lat="42.81783" lon="-0.4237">
        <ele>1785.7861328125</ele>
        <time>2015-03-20T09:27:17Z</time>
      </trkpt>
      <trkpt lat="42.8179" lon="-0.42378">
        <ele>1788.6704101562</ele>
        <time>2015-03-20T09:27:28Z</time>
      </trkpt>
      <trkpt lat="42.818" lon="-0.42389">
        <ele>1791.0734863281</ele>
        <time>2015-03-20T09:27:45Z</time>
      </trkpt>
      <trkpt lat="42.81809" lon="-0.42397">
        <ele>1793.4768066406</ele>
        <time>2015-03-20T09:28:03Z</time>
      </trkpt>
      <trkpt lat="42.81818" lon="-0.42406">
        <ele>1796.3608398438</ele>
        <time>2015-03-20T09:28:19Z</time>
      </trkpt>
      <trkpt lat="42.81825" lon="-0.42413">
        <ele>1799.7253417969</ele>
        <time>2015-03-20T09:28:32Z</time>
      </trkpt>
      <trkpt lat="42.81839" lon="-0.42416">
        <ele>1802.1284179688</ele>
        <time>2015-03-20T09:28:52Z</time>
      </trkpt>
      <trkpt lat="42.81847" lon="-0.42417">
        <ele>1803.5705566406</ele>
        <time>2015-03-20T09:29:09Z</time>
      </trkpt>
      <trkpt lat="42.81857" lon="-0.42416">
        <ele>1806.4545898438</ele>
        <time>2015-03-20T09:29:24Z</time>
      </trkpt>
      <trkpt lat="42.81871" lon="-0.4242">
        <ele>1809.8190917969</ele>
        <time>2015-03-20T09:29:43Z</time>
      </trkpt>
      <trkpt lat="42.81879" lon="-0.42426">
        <ele>1812.2224121094</ele>
        <time>2015-03-20T09:30:00Z</time>
      </trkpt>
      <trkpt lat="42.81888" lon="-0.42431">
        <ele>1814.1450195312</ele>
        <time>2015-03-20T09:30:16Z</time>
      </trkpt>
      <trkpt lat="42.81895" lon="-0.42433">
        <ele>1815.1064453125</ele>
        <time>2015-03-20T09:30:30Z</time>
      </trkpt>
      <trkpt lat="42.81899" lon="-0.42441">
        <ele>1816.0676269531</ele>
        <time>2015-03-20T09:30:48Z</time>
      </trkpt>
      <trkpt lat="42.81906" lon="-0.42459">
        <ele>1817.5095214844</ele>
        <time>2015-03-20T09:31:27Z</time>
      </trkpt>
      <trkpt lat="42.81911" lon="-0.4247">
        <ele>1819.9128417969</ele>
        <time>2015-03-20T09:31:42Z</time>
      </trkpt>
      <trkpt lat="42.81911" lon="-0.42472">
        <ele>1820.3937988281</ele>
        <time>2015-03-20T09:32:07Z</time>
      </trkpt>
      <trkpt lat="42.81917" lon="-0.42472">
        <ele>1819.9128417969</ele>
        <time>2015-03-20T09:32:20Z</time>
      </trkpt>
      <trkpt lat="42.81919" lon="-0.4247">
        <ele>1819.4323730469</ele>
        <time>2015-03-20T09:32:31Z</time>
      </trkpt>
      <trkpt lat="42.81938" lon="-0.42474">
        <ele>1818.4709472656</ele>
        <time>2015-03-20T09:32:49Z</time>
      </trkpt>
      <trkpt lat="42.81954" lon="-0.42477">
        <ele>1821.8356933594</ele>
        <time>2015-03-20T09:33:07Z</time>
      </trkpt>
      <trkpt lat="42.81963" lon="-0.42477">
        <ele>1825.2001953125</ele>
        <time>2015-03-20T09:33:20Z</time>
      </trkpt>
      <trkpt lat="42.81979" lon="-0.42479">
        <ele>1827.123046875</ele>
        <time>2015-03-20T09:33:38Z</time>
      </trkpt>
      <trkpt lat="42.8199" lon="-0.42483">
        <ele>1829.5261230469</ele>
        <time>2015-03-20T09:33:53Z</time>
      </trkpt>
      <trkpt lat="42.81994" lon="-0.42496">
        <ele>1832.41015625</ele>
        <time>2015-03-20T09:34:09Z</time>
      </trkpt>
      <trkpt lat="42.81999" lon="-0.42515">
        <ele>1834.8134765625</ele>
        <time>2015-03-20T09:34:30Z</time>
      </trkpt>
      <trkpt lat="42.82001" lon="-0.42531">
        <ele>1838.1782226562</ele>
        <time>2015-03-20T09:34:47Z</time>
      </trkpt>
      <trkpt lat="42.82003" lon="-0.42536">
        <ele>1838.1782226562</ele>
        <time>2015-03-20T09:35:06Z</time>
      </trkpt>
      <trkpt lat="42.82001" lon="-0.42537">
        <ele>1841.5427246094</ele>
        <time>2015-03-20T09:35:22Z</time>
      </trkpt>
      <trkpt lat="42.82001" lon="-0.42536">
        <ele>1839.6201171875</ele>
        <time>2015-03-20T09:35:23Z</time>
      </trkpt>
      <trkpt lat="42.82001" lon="-0.42537">
        <ele>1838.1782226562</ele>
        <time>2015-03-20T09:35:25Z</time>
      </trkpt>
      <trkpt lat="42.82003" lon="-0.42542">
        <ele>1841.5427246094</ele>
        <time>2015-03-20T09:35:37Z</time>
      </trkpt>
      <trkpt lat="42.82004" lon="-0.42544">
        <ele>1842.0234375</ele>
        <time>2015-03-20T09:35:39Z</time>
      </trkpt>
      <trkpt lat="42.82008" lon="-0.42555">
        <ele>1844.9072265625</ele>
        <time>2015-03-20T09:35:59Z</time>
      </trkpt>
      <trkpt lat="42.82014" lon="-0.42567">
        <ele>1847.7912597656</ele>
        <time>2015-03-20T09:36:16Z</time>
      </trkpt>
      <trkpt lat="42.82021" lon="-0.42584">
        <ele>1851.1557617188</ele>
        <time>2015-03-20T09:36:38Z</time>
      </trkpt>
      <trkpt lat="42.82026" lon="-0.426">
        <ele>1853.0786132812</ele>
        <time>2015-03-20T09:36:58Z</time>
      </trkpt>
      <trkpt lat="42.82029" lon="-0.42608">
        <ele>1855.9624023438</ele>
        <time>2015-03-20T09:37:10Z</time>
      </trkpt>
      <trkpt lat="42.82034" lon="-0.42621">
        <ele>1858.8464355469</ele>
        <time>2015-03-20T09:37:27Z</time>
      </trkpt>
      <trkpt lat="42.82036" lon="-0.42628">
        <ele>1862.2109375</ele>
        <time>2015-03-20T09:37:37Z</time>
      </trkpt>
      <trkpt lat="42.8204" lon="-0.4264">
        <ele>1865.5756835938</ele>
        <time>2015-03-20T09:37:55Z</time>
      </trkpt>
      <trkpt lat="42.82044" lon="-0.4265">
        <ele>1868.4597167969</ele>
        <time>2015-03-20T09:38:08Z</time>
      </trkpt>
      <trkpt lat="42.8205" lon="-0.42668">
        <ele>1871.82421875</ele>
        <time>2015-03-20T09:38:28Z</time>
      </trkpt>
      <trkpt lat="42.82058" lon="-0.42685">
        <ele>1873.7468261719</ele>
        <time>2015-03-20T09:38:47Z</time>
      </trkpt>
      <trkpt lat="42.82067" lon="-0.42699">
        <ele>1876.1501464844</ele>
        <time>2015-03-20T09:39:06Z</time>
      </trkpt>
      <trkpt lat="42.82074" lon="-0.42711">
        <ele>1879.0339355469</ele>
        <time>2015-03-20T09:39:24Z</time>
      </trkpt>
      <trkpt lat="42.8208" lon="-0.42719">
        <ele>1881.4372558594</ele>
        <time>2015-03-20T09:39:41Z</time>
      </trkpt>
      <trkpt lat="42.82087" lon="-0.42731">
        <ele>1884.3215332031</ele>
        <time>2015-03-20T09:40:00Z</time>
      </trkpt>
      <trkpt lat="42.82089" lon="-0.42734">
        <ele>1885.7634277344</ele>
        <time>2015-03-20T09:40:21Z</time>
      </trkpt>
      <trkpt lat="42.82094" lon="-0.42742">
        <ele>1887.6860351562</ele>
        <time>2015-03-20T09:40:54Z</time>
      </trkpt>
      <trkpt lat="42.82098" lon="-0.42749">
        <ele>1890.5698242188</ele>
        <time>2015-03-20T09:41:08Z</time>
      </trkpt>
      <trkpt lat="42.82098" lon="-0.42749">
        <ele>1889.6086425781</ele>
        <time>2015-03-20T09:41:20Z</time>
      </trkpt>
      <trkpt lat="42.82104" lon="-0.42757">
        <ele>1892.4926757812</ele>
        <time>2015-03-20T09:41:50Z</time>
      </trkpt>
      <trkpt lat="42.82116" lon="-0.42773">
        <ele>1894.4150390625</ele>
        <time>2015-03-20T09:42:11Z</time>
      </trkpt>
      <trkpt lat="42.8212" lon="-0.42775">
        <ele>1894.8957519531</ele>
        <time>2015-03-20T09:42:24Z</time>
      </trkpt>
      <trkpt lat="42.8213" lon="-0.42781">
        <ele>1896.337890625</ele>
        <time>2015-03-20T09:42:38Z</time>
      </trkpt>
      <trkpt lat="42.82144" lon="-0.42788">
        <ele>1899.2216796875</ele>
        <time>2015-03-20T09:42:57Z</time>
      </trkpt>
      <trkpt lat="42.82151" lon="-0.4279">
        <ele>1900.1833496094</ele>
        <time>2015-03-20T09:43:10Z</time>
      </trkpt>
      <trkpt lat="42.82149" lon="-0.42789">
        <ele>1899.7023925781</ele>
        <time>2015-03-20T09:43:18Z</time>
      </trkpt>
      <trkpt lat="42.82153" lon="-0.42791">
        <ele>1900.6638183594</ele>
        <time>2015-03-20T09:43:41Z</time>
      </trkpt>
      <trkpt lat="42.82155" lon="-0.4279">
        <ele>1902.1057128906</ele>
        <time>2015-03-20T09:43:44Z</time>
      </trkpt>
      <trkpt lat="42.82163" lon="-0.42785">
        <ele>1905.4704589844</ele>
        <time>2015-03-20T09:43:58Z</time>
      </trkpt>
      <trkpt lat="42.82167" lon="-0.42789">
        <ele>1905.4704589844</ele>
        <time>2015-03-20T09:44:16Z</time>
      </trkpt>
      <trkpt lat="42.82175" lon="-0.42795">
        <ele>1906.9123535156</ele>
        <time>2015-03-20T09:44:30Z</time>
      </trkpt>
      <trkpt lat="42.82188" lon="-0.42794">
        <ele>1909.7961425781</ele>
        <time>2015-03-20T09:44:49Z</time>
      </trkpt>
      <trkpt lat="42.82199" lon="-0.42785">
        <ele>1913.1608886719</ele>
        <time>2015-03-20T09:45:11Z</time>
      </trkpt>
      <trkpt lat="42.82204" lon="-0.42777">
        <ele>1916.044921875</ele>
        <time>2015-03-20T09:45:25Z</time>
      </trkpt>
      <trkpt lat="42.82212" lon="-0.42764">
        <ele>1918.4482421875</ele>
        <time>2015-03-20T09:45:46Z</time>
      </trkpt>
      <trkpt lat="42.82215" lon="-0.4276">
        <ele>1920.3708496094</ele>
        <time>2015-03-20T09:45:54Z</time>
      </trkpt>
      <trkpt lat="42.82217" lon="-0.42758">
        <ele>1921.33203125</ele>
        <time>2015-03-20T09:45:58Z</time>
      </trkpt>
      <trkpt lat="42.82221" lon="-0.42752">
        <ele>1923.2548828125</ele>
        <time>2015-03-20T09:46:19Z</time>
      </trkpt>
      <trkpt lat="42.82228" lon="-0.42745">
        <ele>1926.6193847656</ele>
        <time>2015-03-20T09:46:35Z</time>
      </trkpt>
      <trkpt lat="42.82235" lon="-0.42736">
        <ele>1929.0224609375</ele>
        <time>2015-03-20T09:46:54Z</time>
      </trkpt>
      <trkpt lat="42.82242" lon="-0.42729">
        <ele>1931.42578125</ele>
        <time>2015-03-20T09:47:13Z</time>
      </trkpt>
      <trkpt lat="42.82249" lon="-0.4272">
        <ele>1934.3100585938</ele>
        <time>2015-03-20T09:47:34Z</time>
      </trkpt>
      <trkpt lat="42.82254" lon="-0.42714">
        <ele>1937.6745605469</ele>
        <time>2015-03-20T09:47:50Z</time>
      </trkpt>
      <trkpt lat="42.82261" lon="-0.42708">
        <ele>1940.5583496094</ele>
        <time>2015-03-20T09:48:05Z</time>
      </trkpt>
      <trkpt lat="42.82267" lon="-0.42698">
        <ele>1942.4812011719</ele>
        <time>2015-03-20T09:48:23Z</time>
      </trkpt>
      <trkpt lat="42.82271" lon="-0.42694">
        <ele>1944.8842773438</ele>
        <time>2015-03-20T09:48:44Z</time>
      </trkpt>
      <trkpt lat="42.82278" lon="-0.42684">
        <ele>1946.3264160156</ele>
        <time>2015-03-20T09:49:07Z</time>
      </trkpt>
      <trkpt lat="42.82282" lon="-0.4267">
        <ele>1948.2490234375</ele>
        <time>2015-03-20T09:49:26Z</time>
      </trkpt>
      <trkpt lat="42.82287" lon="-0.4266">
        <ele>1951.1330566406</ele>
        <time>2015-03-20T09:49:40Z</time>
      </trkpt>
      <trkpt lat="42.82291" lon="-0.42646">
        <ele>1953.0556640625</ele>
        <time>2015-03-20T09:49:58Z</time>
      </trkpt>
      <trkpt lat="42.82295" lon="-0.42634">
        <ele>1954.4975585938</ele>
        <time>2015-03-20T09:50:13Z</time>
      </trkpt>
      <trkpt lat="42.82299" lon="-0.42623">
        <ele>1956.4201660156</ele>
        <time>2015-03-20T09:50:28Z</time>
      </trkpt>
      <trkpt lat="42.82306" lon="-0.42611">
        <ele>1958.8234863281</ele>
        <time>2015-03-20T09:50:44Z</time>
      </trkpt>
      <trkpt lat="42.82315" lon="-0.42602">
        <ele>1961.2268066406</ele>
        <time>2015-03-20T09:51:03Z</time>
      </trkpt>
      <trkpt lat="42.82316" lon="-0.42605">
        <ele>1962.6687011719</ele>
        <time>2015-03-20T09:51:29Z</time>
      </trkpt>
      <trkpt lat="42.82321" lon="-0.42605">
        <ele>1966.0334472656</ele>
        <time>2015-03-20T09:51:38Z</time>
      </trkpt>
      <trkpt lat="42.82325" lon="-0.42611">
        <ele>1968.9174804688</ele>
        <time>2015-03-20T09:51:50Z</time>
      </trkpt>
      <trkpt lat="42.82327" lon="-0.42618">
        <ele>1969.3981933594</ele>
        <time>2015-03-20T09:52:09Z</time>
      </trkpt>
      <trkpt lat="42.82327" lon="-0.42627">
        <ele>1971.3205566406</ele>
        <time>2015-03-20T09:52:30Z</time>
      </trkpt>
      <trkpt lat="42.8233" lon="-0.42638">
        <ele>1974.2045898438</ele>
        <time>2015-03-20T09:52:48Z</time>
      </trkpt>
      <trkpt lat="42.82334" lon="-0.42648">
        <ele>1976.1271972656</ele>
        <time>2015-03-20T09:53:07Z</time>
      </trkpt>
      <trkpt lat="42.82336" lon="-0.42654">
        <ele>1979.4916992188</ele>
        <time>2015-03-20T09:53:20Z</time>
      </trkpt>
      <trkpt lat="42.82337" lon="-0.42656">
        <ele>1980.4533691406</ele>
        <time>2015-03-20T09:53:24Z</time>
      </trkpt>
      <trkpt lat="42.82338" lon="-0.4266">
        <ele>1981.8952636719</ele>
        <time>2015-03-20T09:53:47Z</time>
      </trkpt>
      <trkpt lat="42.82341" lon="-0.42667">
        <ele>1983.8178710938</ele>
        <time>2015-03-20T09:54:06Z</time>
      </trkpt>
      <trkpt lat="42.82343" lon="-0.42671">
        <ele>1986.7016601562</ele>
        <time>2015-03-20T09:54:13Z</time>
      </trkpt>
      <trkpt lat="42.82343" lon="-0.42671">
        <ele>1986.7016601562</ele>
        <time>2015-03-20T09:54:14Z</time>
      </trkpt>
      <trkpt lat="42.82346" lon="-0.42681">
        <ele>1988.6245117188</ele>
        <time>2015-03-20T09:54:31Z</time>
      </trkpt>
      <trkpt lat="42.82347" lon="-0.42685">
        <ele>1990.06640625</ele>
        <time>2015-03-20T09:54:37Z</time>
      </trkpt>
      <trkpt lat="42.8235" lon="-0.42696">
        <ele>1992.4697265625</ele>
        <time>2015-03-20T09:54:56Z</time>
      </trkpt>
      <trkpt lat="42.82352" lon="-0.42704">
        <ele>1995.8342285156</ele>
        <time>2015-03-20T09:55:11Z</time>
      </trkpt>
      <trkpt lat="42.82355" lon="-0.42715">
        <ele>1997.7570800781</ele>
        <time>2015-03-20T09:55:31Z</time>
      </trkpt>
      <trkpt lat="42.82357" lon="-0.42723">
        <ele>1998.7182617188</ele>
        <time>2015-03-20T09:55:49Z</time>
      </trkpt>
      <trkpt lat="42.8236" lon="-0.42732">
        <ele>2001.6022949219</ele>
        <time>2015-03-20T09:56:04Z</time>
      </trkpt>
      <trkpt lat="42.82364" lon="-0.42739">
        <ele>2004.966796875</ele>
        <time>2015-03-20T09:56:17Z</time>
      </trkpt>
      <trkpt lat="42.82368" lon="-0.42751">
        <ele>2007.3701171875</ele>
        <time>2015-03-20T09:56:37Z</time>
      </trkpt>
      <trkpt lat="42.82369" lon="-0.42756">
        <ele>2008.3312988281</ele>
        <time>2015-03-20T09:56:44Z</time>
      </trkpt>
      <trkpt lat="42.82376" lon="-0.42752">
        <ele>2011.6960449219</ele>
        <time>2015-03-20T09:56:56Z</time>
      </trkpt>
      <trkpt lat="42.82378" lon="-0.42763">
        <ele>2011.6960449219</ele>
        <time>2015-03-20T09:57:15Z</time>
      </trkpt>
      <trkpt lat="42.82379" lon="-0.4277">
        <ele>2015.0607910156</ele>
        <time>2015-03-20T09:57:55Z</time>
      </trkpt>
      <trkpt lat="42.82386" lon="-0.42775">
        <ele>2017.9445800781</ele>
        <time>2015-03-20T09:58:10Z</time>
      </trkpt>
      <trkpt lat="42.82387" lon="-0.42771">
        <ele>2018.4252929688</ele>
        <time>2015-03-20T09:58:25Z</time>
      </trkpt>
      <trkpt lat="42.82388" lon="-0.42775">
        <ele>2018.9060058594</ele>
        <time>2015-03-20T09:58:42Z</time>
      </trkpt>
      <trkpt lat="42.82387" lon="-0.42775">
        <ele>2017.9445800781</ele>
        <time>2015-03-20T09:59:19Z</time>
      </trkpt>
      <trkpt lat="42.82388" lon="-0.42776">
        <ele>2016.9833984375</ele>
        <time>2015-03-20T10:00:11Z</time>
      </trkpt>
      <trkpt lat="42.82389" lon="-0.42773">
        <ele>2015.5415039062</ele>
        <time>2015-03-20T10:03:24Z</time>
      </trkpt>
      <trkpt lat="42.82387" lon="-0.42773">
        <ele>2017.9445800781</ele>
        <time>2015-03-20T10:04:12Z</time>
      </trkpt>
      <trkpt lat="42.82387" lon="-0.42778">
        <ele>2016.5026855469</ele>
        <time>2015-03-20T10:04:57Z</time>
      </trkpt>
      <trkpt lat="42.82388" lon="-0.42778">
        <ele>2016.5026855469</ele>
        <time>2015-03-20T10:05:31Z</time>
      </trkpt>
      <trkpt lat="42.82387" lon="-0.4278">
        <ele>2016.9833984375</ele>
        <time>2015-03-20T10:05:56Z</time>
      </trkpt>
      <trkpt lat="42.82389" lon="-0.42784">
        <ele>2017.9445800781</ele>
        <time>2015-03-20T10:06:14Z</time>
      </trkpt>
      <trkpt lat="42.82395" lon="-0.42785">
        <ele>2020.8286132812</ele>
        <time>2015-03-20T10:06:26Z</time>
      </trkpt>
      <trkpt lat="42.82395" lon="-0.42782">
        <ele>2020.8286132812</ele>
        <time>2015-03-20T10:06:42Z</time>
      </trkpt>
      <trkpt lat="42.82401" lon="-0.42786">
        <ele>2023.7124023438</ele>
        <time>2015-03-20T10:07:08Z</time>
      </trkpt>
      <trkpt lat="42.82407" lon="-0.42783">
        <ele>2025.6350097656</ele>
        <time>2015-03-20T10:07:25Z</time>
      </trkpt>
      <trkpt lat="42.82414" lon="-0.42777">
        <ele>2028.9997558594</ele>
        <time>2015-03-20T10:07:41Z</time>
      </trkpt>
      <trkpt lat="42.8242" lon="-0.42771">
        <ele>2030.4418945312</ele>
        <time>2015-03-20T10:07:56Z</time>
      </trkpt>
      <trkpt lat="42.82424" lon="-0.42765">
        <ele>2033.3256835938</ele>
        <time>2015-03-20T10:08:12Z</time>
      </trkpt>
      <trkpt lat="42.8243" lon="-0.42759">
        <ele>2036.6901855469</ele>
        <time>2015-03-20T10:08:25Z</time>
      </trkpt>
      <trkpt lat="42.82436" lon="-0.42751">
        <ele>2036.6901855469</ele>
        <time>2015-03-20T10:08:41Z</time>
      </trkpt>
      <trkpt lat="42.82441" lon="-0.42742">
        <ele>2039.0935058594</ele>
        <time>2015-03-20T10:09:00Z</time>
      </trkpt>
      <trkpt lat="42.82445" lon="-0.42735">
        <ele>2041.9775390625</ele>
        <time>2015-03-20T10:09:15Z</time>
      </trkpt>
      <trkpt lat="42.82448" lon="-0.42726">
        <ele>2042.9387207031</ele>
        <time>2015-03-20T10:09:32Z</time>
      </trkpt>
      <trkpt lat="42.82454" lon="-0.42716">
        <ele>2043.9001464844</ele>
        <time>2015-03-20T10:09:49Z</time>
      </trkpt>
      <trkpt lat="42.82458" lon="-0.42708">
        <ele>2047.2648925781</ele>
        <time>2015-03-20T10:10:03Z</time>
      </trkpt>
      <trkpt lat="42.82462" lon="-0.42699">
        <ele>2048.2260742188</ele>
        <time>2015-03-20T10:10:19Z</time>
      </trkpt>
      <trkpt lat="42.82466" lon="-0.42691">
        <ele>2049.1875</ele>
        <time>2015-03-20T10:10:35Z</time>
      </trkpt>
      <trkpt lat="42.82471" lon="-0.42685">
        <ele>2050.1489257812</ele>
        <time>2015-03-20T10:10:48Z</time>
      </trkpt>
      <trkpt lat="42.82475" lon="-0.4268">
        <ele>2052.5520019531</ele>
        <time>2015-03-20T10:11:04Z</time>
      </trkpt>
      <trkpt lat="42.82479" lon="-0.42675">
        <ele>2054.9553222656</ele>
        <time>2015-03-20T10:11:20Z</time>
      </trkpt>
      <trkpt lat="42.82484" lon="-0.4267">
        <ele>2057.3586425781</ele>
        <time>2015-03-20T10:11:38Z</time>
      </trkpt>
      <trkpt lat="42.82488" lon="-0.42665">
        <ele>2058.8005371094</ele>
        <time>2015-03-20T10:11:58Z</time>
      </trkpt>
      <trkpt lat="42.82491" lon="-0.42658">
        <ele>2060.2426757812</ele>
        <time>2015-03-20T10:12:14Z</time>
      </trkpt>
      <trkpt lat="42.82497" lon="-0.42666">
        <ele>2063.6071777344</ele>
        <time>2015-03-20T10:12:33Z</time>
      </trkpt>
      <trkpt lat="42.825" lon="-0.42675">
        <ele>2064.5686035156</ele>
        <time>2015-03-20T10:12:52Z</time>
      </trkpt>
      <trkpt lat="42.82502" lon="-0.42684">
        <ele>2068.4138183594</ele>
        <time>2015-03-20T10:13:04Z</time>
      </trkpt>
      <trkpt lat="42.82502" lon="-0.42685">
        <ele>2067.9331054688</ele>
        <time>2015-03-20T10:13:05Z</time>
      </trkpt>
      <trkpt lat="42.82504" lon="-0.42686">
        <ele>2068.4138183594</ele>
        <time>2015-03-20T10:13:27Z</time>
      </trkpt>
      <trkpt lat="42.82512" lon="-0.42681">
        <ele>2070.3364257812</ele>
        <time>2015-03-20T10:14:03Z</time>
      </trkpt>
      <trkpt lat="42.82511" lon="-0.42682">
        <ele>2070.3364257812</ele>
        <time>2015-03-20T10:14:45Z</time>
      </trkpt>
      <trkpt lat="42.82516" lon="-0.42681">
        <ele>2071.7783203125</ele>
        <time>2015-03-20T10:15:02Z</time>
      </trkpt>
      <trkpt lat="42.8252" lon="-0.42675">
        <ele>2071.7783203125</ele>
        <time>2015-03-20T10:15:27Z</time>
      </trkpt>
      <trkpt lat="42.82529" lon="-0.42664">
        <ele>2073.7009277344</ele>
        <time>2015-03-20T10:15:45Z</time>
      </trkpt>
      <trkpt lat="42.82529" lon="-0.42665">
        <ele>2073.7009277344</ele>
        <time>2015-03-20T10:16:03Z</time>
      </trkpt>
      <trkpt lat="42.82531" lon="-0.42663">
        <ele>2075.6235351562</ele>
        <time>2015-03-20T10:16:39Z</time>
      </trkpt>
      <trkpt lat="42.82534" lon="-0.42659">
        <ele>2076.1044921875</ele>
        <time>2015-03-20T10:16:58Z</time>
      </trkpt>
      <trkpt lat="42.82536" lon="-0.42657">
        <ele>2076.5852050781</ele>
        <time>2015-03-20T10:17:15Z</time>
      </trkpt>
      <trkpt lat="42.8254" lon="-0.42653">
        <ele>2077.5463867188</ele>
        <time>2015-03-20T10:17:53Z</time>
      </trkpt>
      <trkpt lat="42.82547" lon="-0.42646">
        <ele>2080.9111328125</ele>
        <time>2015-03-20T10:18:06Z</time>
      </trkpt>
      <trkpt lat="42.82554" lon="-0.42638">
        <ele>2083.794921875</ele>
        <time>2015-03-20T10:18:21Z</time>
      </trkpt>
      <trkpt lat="42.82561" lon="-0.4263">
        <ele>2087.1594238281</ele>
        <time>2015-03-20T10:18:35Z</time>
      </trkpt>
      <trkpt lat="42.82564" lon="-0.42625">
        <ele>2087.6401367188</ele>
        <time>2015-03-20T10:18:51Z</time>
      </trkpt>
      <trkpt lat="42.8257" lon="-0.42615">
        <ele>2090.5239257812</ele>
        <time>2015-03-20T10:19:10Z</time>
      </trkpt>
      <trkpt lat="42.8257" lon="-0.42614">
        <ele>2090.5239257812</ele>
        <time>2015-03-20T10:19:11Z</time>
      </trkpt>
      <trkpt lat="42.82571" lon="-0.42606">
        <ele>2093.8889160156</ele>
        <time>2015-03-20T10:19:20Z</time>
      </trkpt>
      <trkpt lat="42.82576" lon="-0.42596">
        <ele>2095.3308105469</ele>
        <time>2015-03-20T10:19:39Z</time>
      </trkpt>
      <trkpt lat="42.82578" lon="-0.42592">
        <ele>2096.7727050781</ele>
        <time>2015-03-20T10:19:53Z</time>
      </trkpt>
      <trkpt lat="42.82577" lon="-0.42591">
        <ele>2096.2922363281</ele>
        <time>2015-03-20T10:20:13Z</time>
      </trkpt>
      <trkpt lat="42.82584" lon="-0.42576">
        <ele>2098.6953125</ele>
        <time>2015-03-20T10:20:32Z</time>
      </trkpt>
      <trkpt lat="42.82585" lon="-0.42573">
        <ele>2100.6179199219</ele>
        <time>2015-03-20T10:20:54Z</time>
      </trkpt>
      <trkpt lat="42.82591" lon="-0.42579">
        <ele>2103.0212402344</ele>
        <time>2015-03-20T10:21:14Z</time>
      </trkpt>
      <trkpt lat="42.82603" lon="-0.42578">
        <ele>2105.9050292969</ele>
        <time>2015-03-20T10:21:31Z</time>
      </trkpt>
      <trkpt lat="42.82615" lon="-0.42573">
        <ele>2109.2700195312</ele>
        <time>2015-03-20T10:21:50Z</time>
      </trkpt>
      <trkpt lat="42.82629" lon="-0.4257">
        <ele>2112.6345214844</ele>
        <time>2015-03-20T10:22:08Z</time>
      </trkpt>
      <trkpt lat="42.8264" lon="-0.42566">
        <ele>2113.595703125</ele>
        <time>2015-03-20T10:22:28Z</time>
      </trkpt>
      <trkpt lat="42.82653" lon="-0.42562">
        <ele>2113.595703125</ele>
        <time>2015-03-20T10:22:46Z</time>
      </trkpt>
      <trkpt lat="42.8266" lon="-0.42558">
        <ele>2114.5571289062</ele>
        <time>2015-03-20T10:23:06Z</time>
      </trkpt>
      <trkpt lat="42.82659" lon="-0.42558">
        <ele>2113.595703125</ele>
        <time>2015-03-20T10:24:08Z</time>
      </trkpt>
      <trkpt lat="42.82658" lon="-0.42555">
        <ele>2114.0764160156</ele>
        <time>2015-03-20T10:24:23Z</time>
      </trkpt>
      <trkpt lat="42.82653" lon="-0.42551">
        <ele>2113.595703125</ele>
        <time>2015-03-20T10:24:40Z</time>
      </trkpt>
      <trkpt lat="42.82648" lon="-0.4254">
        <ele>2113.115234375</ele>
        <time>2015-03-20T10:25:00Z</time>
      </trkpt>
      <trkpt lat="42.82637" lon="-0.42527">
        <ele>2112.6345214844</ele>
        <time>2015-03-20T10:25:19Z</time>
      </trkpt>
      <trkpt lat="42.82632" lon="-0.42522">
        <ele>2112.1538085938</ele>
        <time>2015-03-20T10:25:37Z</time>
      </trkpt>
      <trkpt lat="42.82621" lon="-0.42501">
        <ele>2112.6345214844</ele>
        <time>2015-03-20T10:25:57Z</time>
      </trkpt>
      <trkpt lat="42.82615" lon="-0.42483">
        <ele>2113.115234375</ele>
        <time>2015-03-20T10:26:15Z</time>
      </trkpt>
      <trkpt lat="42.82616" lon="-0.42467">
        <ele>2114.0764160156</ele>
        <time>2015-03-20T10:26:31Z</time>
      </trkpt>
      <trkpt lat="42.82612" lon="-0.42446">
        <ele>2116.4797363281</ele>
        <time>2015-03-20T10:26:50Z</time>
      </trkpt>
      <trkpt lat="42.82607" lon="-0.42427">
        <ele>2116.4797363281</ele>
        <time>2015-03-20T10:27:07Z</time>
      </trkpt>
      <trkpt lat="42.82606" lon="-0.42412">
        <ele>2117.9216308594</ele>
        <time>2015-03-20T10:27:23Z</time>
      </trkpt>
      <trkpt lat="42.82604" lon="-0.42399">
        <ele>2118.40234375</ele>
        <time>2015-03-20T10:27:36Z</time>
      </trkpt>
      <trkpt lat="42.82603" lon="-0.42387">
        <ele>2118.8830566406</ele>
        <time>2015-03-20T10:27:51Z</time>
      </trkpt>
      <trkpt lat="42.82603" lon="-0.42366">
        <ele>2119.3637695312</ele>
        <time>2015-03-20T10:28:09Z</time>
      </trkpt>
      <trkpt lat="42.82604" lon="-0.42354">
        <ele>2118.8830566406</ele>
        <time>2015-03-20T10:28:24Z</time>
      </trkpt>
      <trkpt lat="42.82603" lon="-0.4235">
        <ele>2118.40234375</ele>
        <time>2015-03-20T10:29:19Z</time>
      </trkpt>
      <trkpt lat="42.82606" lon="-0.42332">
        <ele>2120.8056640625</ele>
        <time>2015-03-20T10:29:35Z</time>
      </trkpt>
      <trkpt lat="42.82605" lon="-0.42314">
        <ele>2124.1704101562</ele>
        <time>2015-03-20T10:29:51Z</time>
      </trkpt>
      <trkpt lat="42.82602" lon="-0.42304">
        <ele>2125.1315917969</ele>
        <time>2015-03-20T10:30:10Z</time>
      </trkpt>
      <trkpt lat="42.826" lon="-0.42307">
        <ele>2124.6511230469</ele>
        <time>2015-03-20T10:30:33Z</time>
      </trkpt>
      <trkpt lat="42.82598" lon="-0.42299">
        <ele>2124.1704101562</ele>
        <time>2015-03-20T10:30:49Z</time>
      </trkpt>
      <trkpt lat="42.82596" lon="-0.42293">
        <ele>2123.208984375</ele>
        <time>2015-03-20T10:31:03Z</time>
      </trkpt>
      <trkpt lat="42.82592" lon="-0.42283">
        <ele>2123.689453125</ele>
        <time>2015-03-20T10:31:20Z</time>
      </trkpt>
      <trkpt lat="42.82583" lon="-0.42262">
        <ele>2120.3249511719</ele>
        <time>2015-03-20T10:31:43Z</time>
      </trkpt>
      <trkpt lat="42.82582" lon="-0.42259">
        <ele>2119.8442382812</ele>
        <time>2015-03-20T10:31:57Z</time>
      </trkpt>
      <trkpt lat="42.82579" lon="-0.42251">
        <ele>2118.40234375</ele>
        <time>2015-03-20T10:32:16Z</time>
      </trkpt>
      <trkpt lat="42.82577" lon="-0.42242">
        <ele>2116.4797363281</ele>
        <time>2015-03-20T10:32:32Z</time>
      </trkpt>
      <trkpt lat="42.82576" lon="-0.42246">
        <ele>2117.4409179688</ele>
        <time>2015-03-20T10:33:06Z</time>
      </trkpt>
      <trkpt lat="42.82575" lon="-0.42238">
        <ele>2115.9990234375</ele>
        <time>2015-03-20T10:33:36Z</time>
      </trkpt>
      <trkpt lat="42.82568" lon="-0.42214">
        <ele>2116.9604492188</ele>
        <time>2015-03-20T10:33:56Z</time>
      </trkpt>
      <trkpt lat="42.82562" lon="-0.42197">
        <ele>2119.8442382812</ele>
        <time>2015-03-20T10:34:13Z</time>
      </trkpt>
      <trkpt lat="42.82556" lon="-0.42178">
        <ele>2120.8056640625</ele>
        <time>2015-03-20T10:34:31Z</time>
      </trkpt>
      <trkpt lat="42.82553" lon="-0.42166">
        <ele>2121.7668457031</ele>
        <time>2015-03-20T10:34:46Z</time>
      </trkpt>
      <trkpt lat="42.82548" lon="-0.42153">
        <ele>2122.7282714844</ele>
        <time>2015-03-20T10:35:05Z</time>
      </trkpt>
      <trkpt lat="42.82548" lon="-0.42144">
        <ele>2125.6123046875</ele>
        <time>2015-03-20T10:35:15Z</time>
      </trkpt>
      <trkpt lat="42.82547" lon="-0.42124">
        <ele>2126.0930175781</ele>
        <time>2015-03-20T10:35:33Z</time>
      </trkpt>
      <trkpt lat="42.82544" lon="-0.42108">
        <ele>2128.015625</ele>
        <time>2015-03-20T10:35:50Z</time>
      </trkpt>
      <trkpt lat="42.82544" lon="-0.42094">
        <ele>2130.8996582031</ele>
        <time>2015-03-20T10:36:05Z</time>
      </trkpt>
      <trkpt lat="42.82545" lon="-0.42085">
        <ele>2130.8996582031</ele>
        <time>2015-03-20T10:36:13Z</time>
      </trkpt>
      <trkpt lat="42.82544" lon="-0.42082">
        <ele>2130.8996582031</ele>
        <time>2015-03-20T10:36:30Z</time>
      </trkpt>
      <trkpt lat="42.82548" lon="-0.42065">
        <ele>2132.3415527344</ele>
        <time>2015-03-20T10:36:49Z</time>
      </trkpt>
      <trkpt lat="42.82552" lon="-0.42044">
        <ele>2135.2253417969</ele>
        <time>2015-03-20T10:37:07Z</time>
      </trkpt>
      <trkpt lat="42.82552" lon="-0.42024">
        <ele>2137.6286621094</ele>
        <time>2015-03-20T10:37:26Z</time>
      </trkpt>
      <trkpt lat="42.82551" lon="-0.42011">
        <ele>2138.5900878906</ele>
        <time>2015-03-20T10:37:40Z</time>
      </trkpt>
      <trkpt lat="42.82552" lon="-0.41988">
        <ele>2139.0705566406</ele>
        <time>2015-03-20T10:37:59Z</time>
      </trkpt>
      <trkpt lat="42.82553" lon="-0.41986">
        <ele>2138.5900878906</ele>
        <time>2015-03-20T10:38:16Z</time>
      </trkpt>
      <trkpt lat="42.82553" lon="-0.41984">
        <ele>2138.109375</ele>
        <time>2015-03-20T10:38:41Z</time>
      </trkpt>
      <trkpt lat="42.82552" lon="-0.41978">
        <ele>2137.6286621094</ele>
        <time>2015-03-20T10:39:06Z</time>
      </trkpt>
      <trkpt lat="42.8255" lon="-0.4196">
        <ele>2134.2641601562</ele>
        <time>2015-03-20T10:39:23Z</time>
      </trkpt>
      <trkpt lat="42.82548" lon="-0.41938">
        <ele>2130.8996582031</ele>
        <time>2015-03-20T10:39:43Z</time>
      </trkpt>
      <trkpt lat="42.82547" lon="-0.41922">
        <ele>2128.015625</ele>
        <time>2015-03-20T10:39:59Z</time>
      </trkpt>
      <trkpt lat="42.82545" lon="-0.419">
        <ele>2125.1315917969</ele>
        <time>2015-03-20T10:40:18Z</time>
      </trkpt>
      <trkpt lat="42.82543" lon="-0.41879">
        <ele>2121.7668457031</ele>
        <time>2015-03-20T10:40:35Z</time>
      </trkpt>
      <trkpt lat="42.82539" lon="-0.41859">
        <ele>2121.7668457031</ele>
        <time>2015-03-20T10:40:53Z</time>
      </trkpt>
      <trkpt lat="42.82538" lon="-0.41858">
        <ele>2122.2475585938</ele>
        <time>2015-03-20T10:41:15Z</time>
      </trkpt>
      <trkpt lat="42.82537" lon="-0.41857">
        <ele>2122.7282714844</ele>
        <time>2015-03-20T10:41:41Z</time>
      </trkpt>
      <trkpt lat="42.8254" lon="-0.41856">
        <ele>2123.208984375</ele>
        <time>2015-03-20T10:42:03Z</time>
      </trkpt>
      <trkpt lat="42.82542" lon="-0.41858">
        <ele>2121.2861328125</ele>
        <time>2015-03-20T10:42:38Z</time>
      </trkpt>
      <trkpt lat="42.82549" lon="-0.41841">
        <ele>2118.8830566406</ele>
        <time>2015-03-20T10:42:57Z</time>
      </trkpt>
      <trkpt lat="42.82558" lon="-0.41846">
        <ele>2118.40234375</ele>
        <time>2015-03-20T10:43:14Z</time>
      </trkpt>
      <trkpt lat="42.82558" lon="-0.41852">
        <ele>2116.9604492188</ele>
        <time>2015-03-20T10:43:36Z</time>
      </trkpt>
      <trkpt lat="42.82555" lon="-0.41865">
        <ele>2117.9216308594</ele>
        <time>2015-03-20T10:43:58Z</time>
      </trkpt>
      <trkpt lat="42.82548" lon="-0.41876">
        <ele>2120.8056640625</ele>
        <time>2015-03-20T10:44:14Z</time>
      </trkpt>
      <trkpt lat="42.82541" lon="-0.41882">
        <ele>2122.7282714844</ele>
        <time>2015-03-20T10:44:29Z</time>
      </trkpt>
      <trkpt lat="42.8254" lon="-0.41884">
        <ele>2123.689453125</ele>
        <time>2015-03-20T10:44:31Z</time>
      </trkpt>
      <trkpt lat="42.8254" lon="-0.4189">
        <ele>2125.1315917969</ele>
        <time>2015-03-20T10:44:38Z</time>
      </trkpt>
      <trkpt lat="42.82541" lon="-0.41897">
        <ele>2127.0544433594</ele>
        <time>2015-03-20T10:44:46Z</time>
      </trkpt>
      <trkpt lat="42.82544" lon="-0.41917">
        <ele>2129.4575195312</ele>
        <time>2015-03-20T10:45:07Z</time>
      </trkpt>
      <trkpt lat="42.82544" lon="-0.41935">
        <ele>2131.3801269531</ele>
        <time>2015-03-20T10:45:25Z</time>
      </trkpt>
      <trkpt lat="42.82544" lon="-0.41946">
        <ele>2134.2641601562</ele>
        <time>2015-03-20T10:45:37Z</time>
      </trkpt>
      <trkpt lat="42.82544" lon="-0.4195">
        <ele>2133.302734375</ele>
        <time>2015-03-20T10:45:43Z</time>
      </trkpt>
      <trkpt lat="42.82546" lon="-0.41963">
        <ele>2136.1867675781</ele>
        <time>2015-03-20T10:45:57Z</time>
      </trkpt>
      <trkpt lat="42.82547" lon="-0.41976">
        <ele>2138.109375</ele>
        <time>2015-03-20T10:46:15Z</time>
      </trkpt>
      <trkpt lat="42.82544" lon="-0.41991">
        <ele>2139.5512695312</ele>
        <time>2015-03-20T10:46:33Z</time>
      </trkpt>
      <trkpt lat="42.82544" lon="-0.42016">
        <ele>2139.5512695312</ele>
        <time>2015-03-20T10:46:54Z</time>
      </trkpt>
      <trkpt lat="42.82545" lon="-0.42034">
        <ele>2136.1867675781</ele>
        <time>2015-03-20T10:47:10Z</time>
      </trkpt>
      <trkpt lat="42.82545" lon="-0.42038">
        <ele>2135.2253417969</ele>
        <time>2015-03-20T10:47:14Z</time>
      </trkpt>
      <trkpt lat="42.82544" lon="-0.42055">
        <ele>2133.7834472656</ele>
        <time>2015-03-20T10:47:29Z</time>
      </trkpt>
      <trkpt lat="42.82539" lon="-0.42079">
        <ele>2131.8608398438</ele>
        <time>2015-03-20T10:47:48Z</time>
      </trkpt>
      <trkpt lat="42.82536" lon="-0.421">
        <ele>2130.4189453125</ele>
        <time>2015-03-20T10:48:06Z</time>
      </trkpt>
      <trkpt lat="42.82537" lon="-0.42111">
        <ele>2127.5349121094</ele>
        <time>2015-03-20T10:48:18Z</time>
      </trkpt>
      <trkpt lat="42.8254" lon="-0.42128">
        <ele>2126.0930175781</ele>
        <time>2015-03-20T10:48:34Z</time>
      </trkpt>
      <trkpt lat="42.82542" lon="-0.42146">
        <ele>2126.0930175781</ele>
        <time>2015-03-20T10:48:51Z</time>
      </trkpt>
      <trkpt lat="42.82543" lon="-0.42159">
        <ele>2123.689453125</ele>
        <time>2015-03-20T10:49:09Z</time>
      </trkpt>
      <trkpt lat="42.82545" lon="-0.42168">
        <ele>2122.2475585938</ele>
        <time>2015-03-20T10:49:19Z</time>
      </trkpt>
      <trkpt lat="42.82551" lon="-0.42187">
        <ele>2120.8056640625</ele>
        <time>2015-03-20T10:49:38Z</time>
      </trkpt>
      <trkpt lat="42.82557" lon="-0.42202">
        <ele>2117.9216308594</ele>
        <time>2015-03-20T10:49:54Z</time>
      </trkpt>
      <trkpt lat="42.82563" lon="-0.4222">
        <ele>2116.9604492188</ele>
        <time>2015-03-20T10:50:12Z</time>
      </trkpt>
      <trkpt lat="42.82569" lon="-0.42239">
        <ele>2116.9604492188</ele>
        <time>2015-03-20T10:50:29Z</time>
      </trkpt>
      <trkpt lat="42.82573" lon="-0.42253">
        <ele>2120.3249511719</ele>
        <time>2015-03-20T10:50:44Z</time>
      </trkpt>
      <trkpt lat="42.82579" lon="-0.4227">
        <ele>2123.208984375</ele>
        <time>2015-03-20T10:51:05Z</time>
      </trkpt>
      <trkpt lat="42.82587" lon="-0.42285">
        <ele>2125.1315917969</ele>
        <time>2015-03-20T10:51:23Z</time>
      </trkpt>
      <trkpt lat="42.82597" lon="-0.42308">
        <ele>2125.6123046875</ele>
        <time>2015-03-20T10:51:44Z</time>
      </trkpt>
      <trkpt lat="42.826" lon="-0.42331">
        <ele>2123.208984375</ele>
        <time>2015-03-20T10:52:04Z</time>
      </trkpt>
      <trkpt lat="42.82599" lon="-0.42348">
        <ele>2120.3249511719</ele>
        <time>2015-03-20T10:52:21Z</time>
      </trkpt>
      <trkpt lat="42.82598" lon="-0.42363">
        <ele>2119.3637695312</ele>
        <time>2015-03-20T10:52:49Z</time>
      </trkpt>
      <trkpt lat="42.82598" lon="-0.42386">
        <ele>2118.8830566406</ele>
        <time>2015-03-20T10:53:06Z</time>
      </trkpt>
      <trkpt lat="42.82601" lon="-0.42414">
        <ele>2119.3637695312</ele>
        <time>2015-03-20T10:53:27Z</time>
      </trkpt>
      <trkpt lat="42.82605" lon="-0.42442">
        <ele>2117.4409179688</ele>
        <time>2015-03-20T10:53:48Z</time>
      </trkpt>
      <trkpt lat="42.82611" lon="-0.42472">
        <ele>2115.5185546875</ele>
        <time>2015-03-20T10:54:10Z</time>
      </trkpt>
      <trkpt lat="42.82612" lon="-0.42484">
        <ele>2114.0764160156</ele>
        <time>2015-03-20T10:54:27Z</time>
      </trkpt>
      <trkpt lat="42.82612" lon="-0.42515">
        <ele>2113.595703125</ele>
        <time>2015-03-20T10:54:48Z</time>
      </trkpt>
      <trkpt lat="42.82613" lon="-0.42537">
        <ele>2112.6345214844</ele>
        <time>2015-03-20T10:55:08Z</time>
      </trkpt>
      <trkpt lat="42.82614" lon="-0.42547">
        <ele>2111.1926269531</ele>
        <time>2015-03-20T10:55:18Z</time>
      </trkpt>
      <trkpt lat="42.82627" lon="-0.42565">
        <ele>2111.6733398438</ele>
        <time>2015-03-20T10:55:36Z</time>
      </trkpt>
      <trkpt lat="42.82639" lon="-0.42577">
        <ele>2114.5571289062</ele>
        <time>2015-03-20T10:55:53Z</time>
      </trkpt>
      <trkpt lat="42.82654" lon="-0.4259">
        <ele>2113.115234375</ele>
        <time>2015-03-20T10:56:11Z</time>
      </trkpt>
      <trkpt lat="42.8267" lon="-0.42603">
        <ele>2113.595703125</ele>
        <time>2015-03-20T10:56:32Z</time>
      </trkpt>
      <trkpt lat="42.82673" lon="-0.4262">
        <ele>2115.0378417969</ele>
        <time>2015-03-20T10:56:49Z</time>
      </trkpt>
      <trkpt lat="42.82675" lon="-0.42641">
        <ele>2117.9216308594</ele>
        <time>2015-03-20T10:57:11Z</time>
      </trkpt>
      <trkpt lat="42.82673" lon="-0.42654">
        <ele>2121.2861328125</ele>
        <time>2015-03-20T10:57:28Z</time>
      </trkpt>
      <trkpt lat="42.82674" lon="-0.42673">
        <ele>2123.208984375</ele>
        <time>2015-03-20T10:57:48Z</time>
      </trkpt>
      <trkpt lat="42.82676" lon="-0.42688">
        <ele>2125.1315917969</ele>
        <time>2015-03-20T10:58:04Z</time>
      </trkpt>
      <trkpt lat="42.82674" lon="-0.42697">
        <ele>2127.0544433594</ele>
        <time>2015-03-20T10:58:13Z</time>
      </trkpt>
      <trkpt lat="42.82668" lon="-0.42717">
        <ele>2128.4963378906</ele>
        <time>2015-03-20T10:58:31Z</time>
      </trkpt>
      <trkpt lat="42.82655" lon="-0.42735">
        <ele>2130.8996582031</ele>
        <time>2015-03-20T10:58:50Z</time>
      </trkpt>
      <trkpt lat="42.82642" lon="-0.42745">
        <ele>2129.9382324219</ele>
        <time>2015-03-20T10:59:06Z</time>
      </trkpt>
      <trkpt lat="42.82631" lon="-0.42751">
        <ele>2129.9382324219</ele>
        <time>2015-03-20T10:59:23Z</time>
      </trkpt>
      <trkpt lat="42.82616" lon="-0.42766">
        <ele>2127.0544433594</ele>
        <time>2015-03-20T10:59:43Z</time>
      </trkpt>
      <trkpt lat="42.82614" lon="-0.42766">
        <ele>2126.0930175781</ele>
        <time>2015-03-20T10:59:45Z</time>
      </trkpt>
      <trkpt lat="42.82602" lon="-0.42764">
        <ele>2124.6511230469</ele>
        <time>2015-03-20T11:00:04Z</time>
      </trkpt>
      <trkpt lat="42.82601" lon="-0.42765">
        <ele>2124.1704101562</ele>
        <time>2015-03-20T11:00:20Z</time>
      </trkpt>
      <trkpt lat="42.82602" lon="-0.4277">
        <ele>2123.689453125</ele>
        <time>2015-03-20T11:00:29Z</time>
      </trkpt>
      <trkpt lat="42.826" lon="-0.42791">
        <ele>2120.8056640625</ele>
        <time>2015-03-20T11:00:46Z</time>
      </trkpt>
      <trkpt lat="42.82596" lon="-0.42809">
        <ele>2117.4409179688</ele>
        <time>2015-03-20T11:01:04Z</time>
      </trkpt>
      <trkpt lat="42.82596" lon="-0.4281">
        <ele>2117.4409179688</ele>
        <time>2015-03-20T11:01:05Z</time>
      </trkpt>
      <trkpt lat="42.82593" lon="-0.42819">
        <ele>2114.0764160156</ele>
        <time>2015-03-20T11:01:16Z</time>
      </trkpt>
      <trkpt lat="42.8259" lon="-0.42829">
        <ele>2111.6733398438</ele>
        <time>2015-03-20T11:01:31Z</time>
      </trkpt>
      <trkpt lat="42.82587" lon="-0.42835">
        <ele>2109.2700195312</ele>
        <time>2015-03-20T11:01:44Z</time>
      </trkpt>
      <trkpt lat="42.82586" lon="-0.42835">
        <ele>2107.3471679688</ele>
        <time>2015-03-20T11:01:47Z</time>
      </trkpt>
      <trkpt lat="42.82583" lon="-0.42837">
        <ele>2106.8664550781</ele>
        <time>2015-03-20T11:01:56Z</time>
      </trkpt>
      <trkpt lat="42.8258" lon="-0.42839">
        <ele>2105.4245605469</ele>
        <time>2015-03-20T11:02:00Z</time>
      </trkpt>
      <trkpt lat="42.82579" lon="-0.42839">
        <ele>2104.9438476562</ele>
        <time>2015-03-20T11:02:18Z</time>
      </trkpt>
      <trkpt lat="42.82574" lon="-0.42841">
        <ele>2102.0598144531</ele>
        <time>2015-03-20T11:02:28Z</time>
      </trkpt>
      <trkpt lat="42.82567" lon="-0.42838">
        <ele>2098.6953125</ele>
        <time>2015-03-20T11:02:42Z</time>
      </trkpt>
      <trkpt lat="42.82566" lon="-0.42839">
        <ele>2098.6953125</ele>
        <time>2015-03-20T11:02:46Z</time>
      </trkpt>
      <trkpt lat="42.82552" lon="-0.42847">
        <ele>2096.2922363281</ele>
        <time>2015-03-20T11:03:02Z</time>
      </trkpt>
      <trkpt lat="42.8254" lon="-0.42859">
        <ele>2094.3693847656</ele>
        <time>2015-03-20T11:03:16Z</time>
      </trkpt>
      <trkpt lat="42.82528" lon="-0.42869">
        <ele>2091.0046386719</ele>
        <time>2015-03-20T11:03:28Z</time>
      </trkpt>
      <trkpt lat="42.82527" lon="-0.4287">
        <ele>2091.0046386719</ele>
        <time>2015-03-20T11:03:29Z</time>
      </trkpt>
      <trkpt lat="42.82508" lon="-0.42885">
        <ele>2089.08203125</ele>
        <time>2015-03-20T11:03:49Z</time>
      </trkpt>
      <trkpt lat="42.82493" lon="-0.42899">
        <ele>2086.6787109375</ele>
        <time>2015-03-20T11:04:07Z</time>
      </trkpt>
      <trkpt lat="42.82481" lon="-0.42914">
        <ele>2084.7563476562</ele>
        <time>2015-03-20T11:04:26Z</time>
      </trkpt>
      <trkpt lat="42.8248" lon="-0.42919">
        <ele>2084.2756347656</ele>
        <time>2015-03-20T11:04:34Z</time>
      </trkpt>
      <trkpt lat="42.8248" lon="-0.42919">
        <ele>2083.794921875</ele>
        <time>2015-03-20T11:04:52Z</time>
      </trkpt>
      <trkpt lat="42.82489" lon="-0.42905">
        <ele>2085.7175292969</ele>
        <time>2015-03-20T11:05:08Z</time>
      </trkpt>
      <trkpt lat="42.82492" lon="-0.42899">
        <ele>2086.1982421875</ele>
        <time>2015-03-20T11:05:14Z</time>
      </trkpt>
      <trkpt lat="42.82504" lon="-0.42886">
        <ele>2087.1594238281</ele>
        <time>2015-03-20T11:05:30Z</time>
      </trkpt>
      <trkpt lat="42.82506" lon="-0.42883">
        <ele>2087.1594238281</ele>
        <time>2015-03-20T11:05:33Z</time>
      </trkpt>
      <trkpt lat="42.8251" lon="-0.42878">
        <ele>2088.1208496094</ele>
        <time>2015-03-20T11:05:39Z</time>
      </trkpt>
      <trkpt lat="42.82523" lon="-0.42866">
        <ele>2090.0434570312</ele>
        <time>2015-03-20T11:05:56Z</time>
      </trkpt>
      <trkpt lat="42.82528" lon="-0.42859">
        <ele>2090.5239257812</ele>
        <time>2015-03-20T11:06:04Z</time>
      </trkpt>
      <trkpt lat="42.82532" lon="-0.42835">
        <ele>2093.408203125</ele>
        <time>2015-03-20T11:06:23Z</time>
      </trkpt>
      <trkpt lat="42.82532" lon="-0.42809">
        <ele>2092.9274902344</ele>
        <time>2015-03-20T11:06:42Z</time>
      </trkpt>
      <trkpt lat="42.82529" lon="-0.42782">
        <ele>2092.9274902344</ele>
        <time>2015-03-20T11:07:01Z</time>
      </trkpt>
      <trkpt lat="42.82527" lon="-0.42765">
        <ele>2090.0434570312</ele>
        <time>2015-03-20T11:07:14Z</time>
      </trkpt>
      <trkpt lat="42.8253" lon="-0.42745">
        <ele>2086.1982421875</ele>
        <time>2015-03-20T11:07:32Z</time>
      </trkpt>
      <trkpt lat="42.8253" lon="-0.42733">
        <ele>2083.3142089844</ele>
        <time>2015-03-20T11:07:44Z</time>
      </trkpt>
      <trkpt lat="42.82527" lon="-0.42721">
        <ele>2079.9497070312</ele>
        <time>2015-03-20T11:08:00Z</time>
      </trkpt>
      <trkpt lat="42.82525" lon="-0.42708">
        <ele>2076.5852050781</ele>
        <time>2015-03-20T11:08:12Z</time>
      </trkpt>
      <trkpt lat="42.82524" lon="-0.42702">
        <ele>2074.6623535156</ele>
        <time>2015-03-20T11:08:19Z</time>
      </trkpt>
      <trkpt lat="42.82519" lon="-0.42692">
        <ele>2072.7397460938</ele>
        <time>2015-03-20T11:08:34Z</time>
      </trkpt>
      <trkpt lat="42.82518" lon="-0.42689">
        <ele>2072.7397460938</ele>
        <time>2015-03-20T11:08:40Z</time>
      </trkpt>
      <trkpt lat="42.82507" lon="-0.42686">
        <ele>2069.3752441406</ele>
        <time>2015-03-20T11:08:57Z</time>
      </trkpt>
      <trkpt lat="42.82499" lon="-0.42692">
        <ele>2067.4523925781</ele>
        <time>2015-03-20T11:09:15Z</time>
      </trkpt>
      <trkpt lat="42.82493" lon="-0.42699">
        <ele>2065.5300292969</ele>
        <time>2015-03-20T11:09:31Z</time>
      </trkpt>
      <trkpt lat="42.82488" lon="-0.427">
        <ele>2064.087890625</ele>
        <time>2015-03-20T11:09:48Z</time>
      </trkpt>
      <trkpt lat="42.82484" lon="-0.42702">
        <ele>2062.1652832031</ele>
        <time>2015-03-20T11:10:04Z</time>
      </trkpt>
      <trkpt lat="42.82486" lon="-0.42695">
        <ele>2061.2041015625</ele>
        <time>2015-03-20T11:10:22Z</time>
      </trkpt>
      <trkpt lat="42.82486" lon="-0.4269">
        <ele>2060.7233886719</ele>
        <time>2015-03-20T11:10:36Z</time>
      </trkpt>
      <trkpt lat="42.82486" lon="-0.42684">
        <ele>2059.28125</ele>
        <time>2015-03-20T11:10:51Z</time>
      </trkpt>
      <trkpt lat="42.82483" lon="-0.42684">
        <ele>2058.8005371094</ele>
        <time>2015-03-20T11:11:08Z</time>
      </trkpt>
      <trkpt lat="42.82477" lon="-0.42688">
        <ele>2056.3972167969</ele>
        <time>2015-03-20T11:11:29Z</time>
      </trkpt>
      <trkpt lat="42.82473" lon="-0.4269">
        <ele>2054.474609375</ele>
        <time>2015-03-20T11:11:48Z</time>
      </trkpt>
      <trkpt lat="42.82471" lon="-0.4269">
        <ele>2053.5134277344</ele>
        <time>2015-03-20T11:12:05Z</time>
      </trkpt>
      <trkpt lat="42.82467" lon="-0.42701">
        <ele>2054.474609375</ele>
        <time>2015-03-20T11:12:21Z</time>
      </trkpt>
      <trkpt lat="42.82467" lon="-0.42706">
        <ele>2053.0327148438</ele>
        <time>2015-03-20T11:12:39Z</time>
      </trkpt>
      <trkpt lat="42.82465" lon="-0.42708">
        <ele>2053.5134277344</ele>
        <time>2015-03-20T11:12:52Z</time>
      </trkpt>
      <trkpt lat="42.82463" lon="-0.42712">
        <ele>2053.0327148438</ele>
        <time>2015-03-20T11:13:14Z</time>
      </trkpt>
      <trkpt lat="42.8246" lon="-0.42715">
        <ele>2051.5908203125</ele>
        <time>2015-03-20T11:13:31Z</time>
      </trkpt>
      <trkpt lat="42.82457" lon="-0.42718">
        <ele>2050.6293945312</ele>
        <time>2015-03-20T11:13:47Z</time>
      </trkpt>
      <trkpt lat="42.82454" lon="-0.4272">
        <ele>2048.7067871094</ele>
        <time>2015-03-20T11:14:13Z</time>
      </trkpt>
      <trkpt lat="42.82451" lon="-0.42724">
        <ele>2048.2260742188</ele>
        <time>2015-03-20T11:14:28Z</time>
      </trkpt>
      <trkpt lat="42.82449" lon="-0.42726">
        <ele>2046.3037109375</ele>
        <time>2015-03-20T11:14:33Z</time>
      </trkpt>
      <trkpt lat="42.82448" lon="-0.42726">
        <ele>2046.7841796875</ele>
        <time>2015-03-20T11:14:51Z</time>
      </trkpt>
      <trkpt lat="42.82448" lon="-0.42727">
        <ele>2045.3422851562</ele>
        <time>2015-03-20T11:15:10Z</time>
      </trkpt>
      <trkpt lat="42.82445" lon="-0.4273">
        <ele>2045.3422851562</ele>
        <time>2015-03-20T11:15:47Z</time>
      </trkpt>
      <trkpt lat="42.82446" lon="-0.42728">
        <ele>2044.8615722656</ele>
        <time>2015-03-20T11:16:12Z</time>
      </trkpt>
      <trkpt lat="42.82444" lon="-0.42728">
        <ele>2041.9775390625</ele>
        <time>2015-03-20T11:16:30Z</time>
      </trkpt>
      <trkpt lat="42.82442" lon="-0.42733">
        <ele>2041.0161132812</ele>
        <time>2015-03-20T11:16:49Z</time>
      </trkpt>
      <trkpt lat="42.82442" lon="-0.42734">
        <ele>2041.0161132812</ele>
        <time>2015-03-20T11:17:21Z</time>
      </trkpt>
      <trkpt lat="42.82444" lon="-0.42732">
        <ele>2038.6130371094</ele>
        <time>2015-03-20T11:17:51Z</time>
      </trkpt>
      <trkpt lat="42.82444" lon="-0.42731">
        <ele>2043.9001464844</ele>
        <time>2015-03-20T11:17:53Z</time>
      </trkpt>
      <trkpt lat="42.82444" lon="-0.42731">
        <ele>2040.5354003906</ele>
        <time>2015-03-20T11:17:54Z</time>
      </trkpt>
      <trkpt lat="42.82447" lon="-0.42732">
        <ele>2042.9387207031</ele>
        <time>2015-03-20T11:18:15Z</time>
      </trkpt>
      <trkpt lat="42.82447" lon="-0.42736">
        <ele>2043.4194335938</ele>
        <time>2015-03-20T11:18:38Z</time>
      </trkpt>
      <trkpt lat="42.8245" lon="-0.42736">
        <ele>2044.8615722656</ele>
        <time>2015-03-20T11:18:56Z</time>
      </trkpt>
      <trkpt lat="42.82452" lon="-0.42733">
        <ele>2043.9001464844</ele>
        <time>2015-03-20T11:19:21Z</time>
      </trkpt>
      <trkpt lat="42.8245" lon="-0.42735">
        <ele>2044.8615722656</ele>
        <time>2015-03-20T11:20:00Z</time>
      </trkpt>
      <trkpt lat="42.82448" lon="-0.42735">
        <ele>2044.380859375</ele>
        <time>2015-03-20T11:20:29Z</time>
      </trkpt>
      <trkpt lat="42.82446" lon="-0.42733">
        <ele>2042.9387207031</ele>
        <time>2015-03-20T11:20:47Z</time>
      </trkpt>
      <trkpt lat="42.82445" lon="-0.42733">
        <ele>2041.4968261719</ele>
        <time>2015-03-20T11:21:03Z</time>
      </trkpt>
      <trkpt lat="42.82443" lon="-0.42732">
        <ele>2041.0161132812</ele>
        <time>2015-03-20T11:21:22Z</time>
      </trkpt>
      <trkpt lat="42.82443" lon="-0.42733">
        <ele>2040.5354003906</ele>
        <time>2015-03-20T11:22:06Z</time>
      </trkpt>
      <trkpt lat="42.82443" lon="-0.42734">
        <ele>2041.0161132812</ele>
        <time>2015-03-20T11:22:30Z</time>
      </trkpt>
      <trkpt lat="42.82443" lon="-0.42733">
        <ele>2040.5354003906</ele>
        <time>2015-03-20T11:23:01Z</time>
      </trkpt>
      <trkpt lat="42.8244" lon="-0.42738">
        <ele>2038.6130371094</ele>
        <time>2015-03-20T11:23:20Z</time>
      </trkpt>
      <trkpt lat="42.82434" lon="-0.42749">
        <ele>2036.6901855469</ele>
        <time>2015-03-20T11:23:39Z</time>
      </trkpt>
      <trkpt lat="42.82425" lon="-0.42761">
        <ele>2033.8063964844</ele>
        <time>2015-03-20T11:23:59Z</time>
      </trkpt>
      <trkpt lat="42.82419" lon="-0.42767">
        <ele>2030.4418945312</ele>
        <time>2015-03-20T11:24:14Z</time>
      </trkpt>
      <trkpt lat="42.82411" lon="-0.42773">
        <ele>2028.0385742188</ele>
        <time>2015-03-20T11:24:35Z</time>
      </trkpt>
      <trkpt lat="42.82405" lon="-0.42777">
        <ele>2025.6350097656</ele>
        <time>2015-03-20T11:24:53Z</time>
      </trkpt>
      <trkpt lat="42.824" lon="-0.42781">
        <ele>2023.2319335938</ele>
        <time>2015-03-20T11:25:09Z</time>
      </trkpt>
      <trkpt lat="42.82397" lon="-0.4278">
        <ele>2021.7897949219</ele>
        <time>2015-03-20T11:25:17Z</time>
      </trkpt>
      <trkpt lat="42.82391" lon="-0.42781">
        <ele>2018.4252929688</ele>
        <time>2015-03-20T11:25:25Z</time>
      </trkpt>
      <trkpt lat="42.82386" lon="-0.42772">
        <ele>2016.0219726562</ele>
        <time>2015-03-20T11:25:35Z</time>
      </trkpt>
      <trkpt lat="42.8238" lon="-0.42768">
        <ele>2012.6574707031</ele>
        <time>2015-03-20T11:25:43Z</time>
      </trkpt>
      <trkpt lat="42.82375" lon="-0.42759">
        <ele>2010.7346191406</ele>
        <time>2015-03-20T11:25:56Z</time>
      </trkpt>
      <trkpt lat="42.82372" lon="-0.42754">
        <ele>2008.3312988281</ele>
        <time>2015-03-20T11:26:02Z</time>
      </trkpt>
      <trkpt lat="42.82367" lon="-0.42741">
        <ele>2004.966796875</ele>
        <time>2015-03-20T11:26:14Z</time>
      </trkpt>
      <trkpt lat="42.82366" lon="-0.42739">
        <ele>2003.5249023438</ele>
        <time>2015-03-20T11:26:16Z</time>
      </trkpt>
      <trkpt lat="42.82362" lon="-0.42729">
        <ele>2000.1604003906</ele>
        <time>2015-03-20T11:26:26Z</time>
      </trkpt>
      <trkpt lat="42.82361" lon="-0.42728">
        <ele>2000.1604003906</ele>
        <time>2015-03-20T11:26:27Z</time>
      </trkpt>
      <trkpt lat="42.8236" lon="-0.42723">
        <ele>1998.7182617188</ele>
        <time>2015-03-20T11:26:32Z</time>
      </trkpt>
      <trkpt lat="42.82357" lon="-0.42716">
        <ele>1996.7956542969</ele>
        <time>2015-03-20T11:26:38Z</time>
      </trkpt>
      <trkpt lat="42.82354" lon="-0.42711">
        <ele>1994.3920898438</ele>
        <time>2015-03-20T11:26:47Z</time>
      </trkpt>
      <trkpt lat="42.82351" lon="-0.42696">
        <ele>1991.5083007812</ele>
        <time>2015-03-20T11:26:59Z</time>
      </trkpt>
      <trkpt lat="42.82349" lon="-0.42688">
        <ele>1989.1049804688</ele>
        <time>2015-03-20T11:27:05Z</time>
      </trkpt>
      <trkpt lat="42.82346" lon="-0.42677">
        <ele>1986.2211914062</ele>
        <time>2015-03-20T11:27:14Z</time>
      </trkpt>
      <trkpt lat="42.82344" lon="-0.42671">
        <ele>1983.8178710938</ele>
        <time>2015-03-20T11:27:19Z</time>
      </trkpt>
      <trkpt lat="42.82341" lon="-0.42665">
        <ele>1981.8952636719</ele>
        <time>2015-03-20T11:27:24Z</time>
      </trkpt>
      <trkpt lat="42.82339" lon="-0.42656">
        <ele>1979.0109863281</ele>
        <time>2015-03-20T11:27:33Z</time>
      </trkpt>
      <trkpt lat="42.82335" lon="-0.42644">
        <ele>1975.646484375</ele>
        <time>2015-03-20T11:27:45Z</time>
      </trkpt>
      <trkpt lat="42.82332" lon="-0.42628">
        <ele>1972.7626953125</ele>
        <time>2015-03-20T11:27:59Z</time>
      </trkpt>
      <trkpt lat="42.82331" lon="-0.42612">
        <ele>1968.9174804688</ele>
        <time>2015-03-20T11:28:12Z</time>
      </trkpt>
      <trkpt lat="42.82331" lon="-0.42608">
        <ele>1967.9560546875</ele>
        <time>2015-03-20T11:28:16Z</time>
      </trkpt>
      <trkpt lat="42.82327" lon="-0.42598">
        <ele>1966.5141601562</ele>
        <time>2015-03-20T11:28:31Z</time>
      </trkpt>
      <trkpt lat="42.82322" lon="-0.42598">
        <ele>1963.6298828125</ele>
        <time>2015-03-20T11:28:52Z</time>
      </trkpt>
      <trkpt lat="42.82314" lon="-0.42601">
        <ele>1960.2653808594</ele>
        <time>2015-03-20T11:29:02Z</time>
      </trkpt>
      <trkpt lat="42.82306" lon="-0.42608">
        <ele>1959.3041992188</ele>
        <time>2015-03-20T11:29:24Z</time>
      </trkpt>
      <trkpt lat="42.82305" lon="-0.42609">
        <ele>1958.8234863281</ele>
        <time>2015-03-20T11:29:49Z</time>
      </trkpt>
      <trkpt lat="42.82302" lon="-0.42613">
        <ele>1957.3815917969</ele>
        <time>2015-03-20T11:30:25Z</time>
      </trkpt>
      <trkpt lat="42.82296" lon="-0.42625">
        <ele>1954.0170898438</ele>
        <time>2015-03-20T11:30:39Z</time>
      </trkpt>
      <trkpt lat="42.82294" lon="-0.42632">
        <ele>1954.0170898438</ele>
        <time>2015-03-20T11:30:57Z</time>
      </trkpt>
      <trkpt lat="42.82292" lon="-0.42636">
        <ele>1952.5749511719</ele>
        <time>2015-03-20T11:31:26Z</time>
      </trkpt>
      <trkpt lat="42.82291" lon="-0.42642">
        <ele>1952.0942382812</ele>
        <time>2015-03-20T11:31:39Z</time>
      </trkpt>
      <trkpt lat="42.82288" lon="-0.4265">
        <ele>1951.1330566406</ele>
        <time>2015-03-20T11:31:57Z</time>
      </trkpt>
      <trkpt lat="42.82283" lon="-0.42662">
        <ele>1948.2490234375</ele>
        <time>2015-03-20T11:32:16Z</time>
      </trkpt>
      <trkpt lat="42.8228" lon="-0.4267">
        <ele>1946.8068847656</ele>
        <time>2015-03-20T11:32:32Z</time>
      </trkpt>
      <trkpt lat="42.82274" lon="-0.42683">
        <ele>1945.845703125</ele>
        <time>2015-03-20T11:32:52Z</time>
      </trkpt>
      <trkpt lat="42.82268" lon="-0.42691">
        <ele>1943.9230957031</ele>
        <time>2015-03-20T11:33:07Z</time>
      </trkpt>
      <trkpt lat="42.82263" lon="-0.42698">
        <ele>1942.0004882812</ele>
        <time>2015-03-20T11:33:21Z</time>
      </trkpt>
      <trkpt lat="42.8226" lon="-0.42702">
        <ele>1940.5583496094</ele>
        <time>2015-03-20T11:33:28Z</time>
      </trkpt>
      <trkpt lat="42.82253" lon="-0.42711">
        <ele>1937.6745605469</ele>
        <time>2015-03-20T11:33:41Z</time>
      </trkpt>
      <trkpt lat="42.82251" lon="-0.42714">
        <ele>1935.751953125</ele>
        <time>2015-03-20T11:33:59Z</time>
      </trkpt>
      <trkpt lat="42.82242" lon="-0.42724">
        <ele>1932.8679199219</ele>
        <time>2015-03-20T11:34:13Z</time>
      </trkpt>
      <trkpt lat="42.82237" lon="-0.4273">
        <ele>1929.5031738281</ele>
        <time>2015-03-20T11:34:21Z</time>
      </trkpt>
      <trkpt lat="42.82233" lon="-0.42736">
        <ele>1928.5419921875</ele>
        <time>2015-03-20T11:34:35Z</time>
      </trkpt>
      <trkpt lat="42.8223" lon="-0.42738">
        <ele>1926.138671875</ele>
        <time>2015-03-20T11:34:44Z</time>
      </trkpt>
      <trkpt lat="42.82227" lon="-0.42742">
        <ele>1924.2160644531</ele>
        <time>2015-03-20T11:34:50Z</time>
      </trkpt>
      <trkpt lat="42.8222" lon="-0.42751">
        <ele>1920.8515625</ele>
        <time>2015-03-20T11:35:04Z</time>
      </trkpt>
      <trkpt lat="42.8222" lon="-0.42752">
        <ele>1921.8127441406</ele>
        <time>2015-03-20T11:35:33Z</time>
      </trkpt>
      <trkpt lat="42.82217" lon="-0.42754">
        <ele>1919.8901367188</ele>
        <time>2015-03-20T11:35:57Z</time>
      </trkpt>
      <trkpt lat="42.82212" lon="-0.4276">
        <ele>1917.0063476562</ele>
        <time>2015-03-20T11:36:10Z</time>
      </trkpt>
      <trkpt lat="42.82206" lon="-0.4277">
        <ele>1914.1220703125</ele>
        <time>2015-03-20T11:36:21Z</time>
      </trkpt>
      <trkpt lat="42.82199" lon="-0.42781">
        <ele>1911.23828125</ele>
        <time>2015-03-20T11:36:34Z</time>
      </trkpt>
      <trkpt lat="42.82195" lon="-0.42784">
        <ele>1910.2768554688</ele>
        <time>2015-03-20T11:36:52Z</time>
      </trkpt>
      <trkpt lat="42.82196" lon="-0.42784">
        <ele>1910.2768554688</ele>
        <time>2015-03-20T11:37:19Z</time>
      </trkpt>
      <trkpt lat="42.82195" lon="-0.42784">
        <ele>1909.7961425781</ele>
        <time>2015-03-20T11:37:50Z</time>
      </trkpt>
      <trkpt lat="42.82196" lon="-0.42785">
        <ele>1909.7961425781</ele>
        <time>2015-03-20T11:38:10Z</time>
      </trkpt>
      <trkpt lat="42.82195" lon="-0.42787">
        <ele>1909.7961425781</ele>
        <time>2015-03-20T11:38:37Z</time>
      </trkpt>
      <trkpt lat="42.82193" lon="-0.42788">
        <ele>1909.3156738281</ele>
        <time>2015-03-20T11:38:39Z</time>
      </trkpt>
      <trkpt lat="42.82181" lon="-0.42791">
        <ele>1908.3542480469</ele>
        <time>2015-03-20T11:38:54Z</time>
      </trkpt>
      <trkpt lat="42.8218" lon="-0.4279">
        <ele>1907.3930664062</ele>
        <time>2015-03-20T11:39:24Z</time>
      </trkpt>
      <trkpt lat="42.82179" lon="-0.42788">
        <ele>1907.8737792969</ele>
        <time>2015-03-20T11:39:48Z</time>
      </trkpt>
      <trkpt lat="42.8218" lon="-0.42789">
        <ele>1906.9123535156</ele>
        <time>2015-03-20T11:40:28Z</time>
      </trkpt>
      <trkpt lat="42.82179" lon="-0.4279">
        <ele>1906.431640625</ele>
        <time>2015-03-20T11:40:57Z</time>
      </trkpt>
      <trkpt lat="42.82179" lon="-0.4279">
        <ele>1905.9509277344</ele>
        <time>2015-03-20T11:41:23Z</time>
      </trkpt>
      <trkpt lat="42.82177" lon="-0.42788">
        <ele>1905.4704589844</ele>
        <time>2015-03-20T11:41:50Z</time>
      </trkpt>
      <trkpt lat="42.82176" lon="-0.42787">
        <ele>1905.9509277344</ele>
        <time>2015-03-20T11:42:14Z</time>
      </trkpt>
      <trkpt lat="42.82175" lon="-0.42789">
        <ele>1905.4704589844</ele>
        <time>2015-03-20T11:42:40Z</time>
      </trkpt>
      <trkpt lat="42.82174" lon="-0.42789">
        <ele>1905.4704589844</ele>
        <time>2015-03-20T11:43:05Z</time>
      </trkpt>
      <trkpt lat="42.82175" lon="-0.42789">
        <ele>1904.9897460938</ele>
        <time>2015-03-20T11:43:44Z</time>
      </trkpt>
      <trkpt lat="42.82174" lon="-0.42789">
        <ele>1904.9897460938</ele>
        <time>2015-03-20T11:44:08Z</time>
      </trkpt>
      <trkpt lat="42.82173" lon="-0.42789">
        <ele>1904.5090332031</ele>
        <time>2015-03-20T11:44:10Z</time>
      </trkpt>
      <trkpt lat="42.82162" lon="-0.42787">
        <ele>1903.0671386719</ele>
        <time>2015-03-20T11:44:25Z</time>
      </trkpt>
      <trkpt lat="42.8216" lon="-0.42788">
        <ele>1902.5864257812</ele>
        <time>2015-03-20T11:44:27Z</time>
      </trkpt>
      <trkpt lat="42.82153" lon="-0.42795">
        <ele>1899.7023925781</ele>
        <time>2015-03-20T11:44:35Z</time>
      </trkpt>
      <trkpt lat="42.82145" lon="-0.42793">
        <ele>1897.2990722656</ele>
        <time>2015-03-20T11:44:43Z</time>
      </trkpt>
      <trkpt lat="42.82125" lon="-0.42778">
        <ele>1894.4150390625</ele>
        <time>2015-03-20T11:45:02Z</time>
      </trkpt>
      <trkpt lat="42.82112" lon="-0.42762">
        <ele>1891.0505371094</ele>
        <time>2015-03-20T11:45:18Z</time>
      </trkpt>
      <trkpt lat="42.82103" lon="-0.42753">
        <ele>1888.1667480469</ele>
        <time>2015-03-20T11:45:28Z</time>
      </trkpt>
      <trkpt lat="42.82096" lon="-0.4274">
        <ele>1884.8022460938</ele>
        <time>2015-03-20T11:45:40Z</time>
      </trkpt>
      <trkpt lat="42.82095" lon="-0.42739">
        <ele>1884.8022460938</ele>
        <time>2015-03-20T11:45:41Z</time>
      </trkpt>
      <trkpt lat="42.82086" lon="-0.42728">
        <ele>1883.3598632812</ele>
        <time>2015-03-20T11:45:59Z</time>
      </trkpt>
      <trkpt lat="42.8208" lon="-0.42719">
        <ele>1880.9567871094</ele>
        <time>2015-03-20T11:46:07Z</time>
      </trkpt>
      <trkpt lat="42.82069" lon="-0.42711">
        <ele>1877.5920410156</ele>
        <time>2015-03-20T11:46:18Z</time>
      </trkpt>
      <trkpt lat="42.82061" lon="-0.42704">
        <ele>1874.7082519531</ele>
        <time>2015-03-20T11:46:26Z</time>
      </trkpt>
      <trkpt lat="42.82038" lon="-0.42685">
        <ele>1871.82421875</ele>
        <time>2015-03-20T11:46:48Z</time>
      </trkpt>
      <trkpt lat="42.82029" lon="-0.42675">
        <ele>1868.9404296875</ele>
        <time>2015-03-20T11:47:04Z</time>
      </trkpt>
      <trkpt lat="42.82022" lon="-0.4267">
        <ele>1866.5368652344</ele>
        <time>2015-03-20T11:47:11Z</time>
      </trkpt>
      <trkpt lat="42.82018" lon="-0.42661">
        <ele>1864.6142578125</ele>
        <time>2015-03-20T11:47:20Z</time>
      </trkpt>
      <trkpt lat="42.82015" lon="-0.42646">
        <ele>1861.2497558594</ele>
        <time>2015-03-20T11:47:34Z</time>
      </trkpt>
      <trkpt lat="42.82015" lon="-0.42636">
        <ele>1859.3271484375</ele>
        <time>2015-03-20T11:47:48Z</time>
      </trkpt>
      <trkpt lat="42.82017" lon="-0.4262">
        <ele>1855.9624023438</ele>
        <time>2015-03-20T11:48:00Z</time>
      </trkpt>
      <trkpt lat="42.82017" lon="-0.42604">
        <ele>1853.5593261719</ele>
        <time>2015-03-20T11:48:12Z</time>
      </trkpt>
      <trkpt lat="42.82014" lon="-0.42595">
        <ele>1850.6750488281</ele>
        <time>2015-03-20T11:48:19Z</time>
      </trkpt>
      <trkpt lat="42.82005" lon="-0.42579">
        <ele>1847.7912597656</ele>
        <time>2015-03-20T11:48:34Z</time>
      </trkpt>
      <trkpt lat="42.82002" lon="-0.42573">
        <ele>1846.3493652344</ele>
        <time>2015-03-20T11:48:39Z</time>
      </trkpt>
      <trkpt lat="42.82" lon="-0.42568">
        <ele>1844.9072265625</ele>
        <time>2015-03-20T11:48:44Z</time>
      </trkpt>
      <trkpt lat="42.81989" lon="-0.42551">
        <ele>1841.5427246094</ele>
        <time>2015-03-20T11:49:01Z</time>
      </trkpt>
      <trkpt lat="42.81984" lon="-0.4254">
        <ele>1838.6589355469</ele>
        <time>2015-03-20T11:49:11Z</time>
      </trkpt>
      <trkpt lat="42.81975" lon="-0.42525">
        <ele>1835.7746582031</ele>
        <time>2015-03-20T11:49:26Z</time>
      </trkpt>
      <trkpt lat="42.81973" lon="-0.42519">
        <ele>1833.3713378906</ele>
        <time>2015-03-20T11:49:31Z</time>
      </trkpt>
      <trkpt lat="42.81966" lon="-0.42508">
        <ele>1830.4875488281</ele>
        <time>2015-03-20T11:49:44Z</time>
      </trkpt>
      <trkpt lat="42.8196" lon="-0.42502">
        <ele>1827.123046875</ele>
        <time>2015-03-20T11:49:54Z</time>
      </trkpt>
      <trkpt lat="42.81953" lon="-0.42495">
        <ele>1824.2390136719</ele>
        <time>2015-03-20T11:50:05Z</time>
      </trkpt>
      <trkpt lat="42.81944" lon="-0.42487">
        <ele>1819.9128417969</ele>
        <time>2015-03-20T11:50:17Z</time>
      </trkpt>
      <trkpt lat="42.81924" lon="-0.42472">
        <ele>1819.9128417969</ele>
        <time>2015-03-20T11:50:37Z</time>
      </trkpt>
      <trkpt lat="42.81907" lon="-0.42465">
        <ele>1819.9128417969</ele>
        <time>2015-03-20T11:50:56Z</time>
      </trkpt>
      <trkpt lat="42.81906" lon="-0.42466">
        <ele>1818.4709472656</ele>
        <time>2015-03-20T11:51:16Z</time>
      </trkpt>
      <trkpt lat="42.81905" lon="-0.42466">
        <ele>1818.4709472656</ele>
        <time>2015-03-20T11:51:31Z</time>
      </trkpt>
      <trkpt lat="42.81903" lon="-0.4247">
        <ele>1819.4323730469</ele>
        <time>2015-03-20T11:51:42Z</time>
      </trkpt>
      <trkpt lat="42.81903" lon="-0.42469">
        <ele>1819.4323730469</ele>
        <time>2015-03-20T11:51:59Z</time>
      </trkpt>
      <trkpt lat="42.81903" lon="-0.42469">
        <ele>1818.4709472656</ele>
        <time>2015-03-20T11:53:28Z</time>
      </trkpt>
      <trkpt lat="42.81903" lon="-0.42468">
        <ele>1819.9128417969</ele>
        <time>2015-03-20T11:54:08Z</time>
      </trkpt>
      <trkpt lat="42.81903" lon="-0.42468">
        <ele>1819.9128417969</ele>
        <time>2015-03-20T11:54:35Z</time>
      </trkpt>
      <trkpt lat="42.81902" lon="-0.42468">
        <ele>1819.9128417969</ele>
        <time>2015-03-20T11:54:36Z</time>
      </trkpt>
      <trkpt lat="42.81903" lon="-0.42468">
        <ele>1819.9128417969</ele>
        <time>2015-03-20T11:55:29Z</time>
      </trkpt>
      <trkpt lat="42.81903" lon="-0.42468">
        <ele>1820.3937988281</ele>
        <time>2015-03-20T11:56:38Z</time>
      </trkpt>
      <trkpt lat="42.81903" lon="-0.42469">
        <ele>1820.8745117188</ele>
        <time>2015-03-20T11:57:06Z</time>
      </trkpt>
      <trkpt lat="42.81904" lon="-0.42468">
        <ele>1819.4323730469</ele>
        <time>2015-03-20T12:03:03Z</time>
      </trkpt>
      <trkpt lat="42.81903" lon="-0.42467">
        <ele>1818.9516601562</ele>
        <time>2015-03-20T12:03:32Z</time>
      </trkpt>
      <trkpt lat="42.81904" lon="-0.42468">
        <ele>1819.4323730469</ele>
        <time>2015-03-20T12:04:09Z</time>
      </trkpt>
      <trkpt lat="42.81904" lon="-0.42469">
        <ele>1818.4709472656</ele>
        <time>2015-03-20T12:06:01Z</time>
      </trkpt>
      <trkpt lat="42.81905" lon="-0.42472">
        <ele>1818.4709472656</ele>
        <time>2015-03-20T12:07:52Z</time>
      </trkpt>
      <trkpt lat="42.81903" lon="-0.42469">
        <ele>1819.4323730469</ele>
        <time>2015-03-20T12:09:34Z</time>
      </trkpt>
      <trkpt lat="42.81903" lon="-0.42469">
        <ele>1819.4323730469</ele>
        <time>2015-03-20T12:09:52Z</time>
      </trkpt>
      <trkpt lat="42.81903" lon="-0.42469">
        <ele>1819.9128417969</ele>
        <time>2015-03-20T12:10:07Z</time>
      </trkpt>
      <trkpt lat="42.81904" lon="-0.42469">
        <ele>1820.8745117188</ele>
        <time>2015-03-20T12:10:47Z</time>
      </trkpt>
      <trkpt lat="42.819" lon="-0.42468">
        <ele>1820.3937988281</ele>
        <time>2015-03-20T12:11:01Z</time>
      </trkpt>
      <trkpt lat="42.81899" lon="-0.42465">
        <ele>1820.3937988281</ele>
        <time>2015-03-20T12:11:23Z</time>
      </trkpt>
      <trkpt lat="42.81897" lon="-0.4246">
        <ele>1819.4323730469</ele>
        <time>2015-03-20T12:11:33Z</time>
      </trkpt>
      <trkpt lat="42.81885" lon="-0.42439">
        <ele>1816.5483398438</ele>
        <time>2015-03-20T12:11:53Z</time>
      </trkpt>
      <trkpt lat="42.81879" lon="-0.42432">
        <ele>1813.1838378906</ele>
        <time>2015-03-20T12:12:03Z</time>
      </trkpt>
      <trkpt lat="42.81877" lon="-0.42429">
        <ele>1812.2224121094</ele>
        <time>2015-03-20T12:12:06Z</time>
      </trkpt>
      <trkpt lat="42.81872" lon="-0.42424">
        <ele>1809.3386230469</ele>
        <time>2015-03-20T12:12:11Z</time>
      </trkpt>
      <trkpt lat="42.8186" lon="-0.42415">
        <ele>1806.9353027344</ele>
        <time>2015-03-20T12:12:26Z</time>
      </trkpt>
      <trkpt lat="42.81853" lon="-0.42412">
        <ele>1804.5319824219</ele>
        <time>2015-03-20T12:12:35Z</time>
      </trkpt>
      <trkpt lat="42.81847" lon="-0.42406">
        <ele>1800.6865234375</ele>
        <time>2015-03-20T12:12:42Z</time>
      </trkpt>
      <trkpt lat="42.8184" lon="-0.42399">
        <ele>1798.7639160156</ele>
        <time>2015-03-20T12:12:54Z</time>
      </trkpt>
      <trkpt lat="42.81838" lon="-0.42397">
        <ele>1797.3220214844</ele>
        <time>2015-03-20T12:12:56Z</time>
      </trkpt>
      <trkpt lat="42.8183" lon="-0.42386">
        <ele>1794.4379882812</ele>
        <time>2015-03-20T12:13:08Z</time>
      </trkpt>
      <trkpt lat="42.81817" lon="-0.4237">
        <ele>1790.5927734375</ele>
        <time>2015-03-20T12:13:24Z</time>
      </trkpt>
      <trkpt lat="42.81808" lon="-0.42359">
        <ele>1787.7087402344</ele>
        <time>2015-03-20T12:13:35Z</time>
      </trkpt>
      <trkpt lat="42.81792" lon="-0.42339">
        <ele>1784.8249511719</ele>
        <time>2015-03-20T12:13:53Z</time>
      </trkpt>
      <trkpt lat="42.81784" lon="-0.42329">
        <ele>1782.4216308594</ele>
        <time>2015-03-20T12:14:02Z</time>
      </trkpt>
      <trkpt lat="42.81768" lon="-0.4231">
        <ele>1779.0568847656</ele>
        <time>2015-03-20T12:14:19Z</time>
      </trkpt>
      <trkpt lat="42.81751" lon="-0.42287">
        <ele>1777.1345214844</ele>
        <time>2015-03-20T12:14:39Z</time>
      </trkpt>
      <trkpt lat="42.81749" lon="-0.42285">
        <ele>1776.6538085938</ele>
        <time>2015-03-20T12:14:41Z</time>
      </trkpt>
      <trkpt lat="42.81746" lon="-0.42283">
        <ele>1776.6538085938</ele>
        <time>2015-03-20T12:14:45Z</time>
      </trkpt>
      <trkpt lat="42.81728" lon="-0.42268">
        <ele>1775.2116699219</ele>
        <time>2015-03-20T12:15:03Z</time>
      </trkpt>
      <trkpt lat="42.81708" lon="-0.42254">
        <ele>1773.7697753906</ele>
        <time>2015-03-20T12:15:24Z</time>
      </trkpt>
      <trkpt lat="42.817" lon="-0.4225">
        <ele>1771.3662109375</ele>
        <time>2015-03-20T12:15:32Z</time>
      </trkpt>
      <trkpt lat="42.81679" lon="-0.42241">
        <ele>1768.482421875</ele>
        <time>2015-03-20T12:15:51Z</time>
      </trkpt>
      <trkpt lat="42.81676" lon="-0.42239">
        <ele>1768.0017089844</ele>
        <time>2015-03-20T12:15:53Z</time>
      </trkpt>
      <trkpt lat="42.81665" lon="-0.42234">
        <ele>1764.6372070312</ele>
        <time>2015-03-20T12:16:05Z</time>
      </trkpt>
      <trkpt lat="42.81664" lon="-0.42233">
        <ele>1764.6372070312</ele>
        <time>2015-03-20T12:16:06Z</time>
      </trkpt>
      <trkpt lat="42.81653" lon="-0.42226">
        <ele>1761.2727050781</ele>
        <time>2015-03-20T12:16:18Z</time>
      </trkpt>
      <trkpt lat="42.8164" lon="-0.42217">
        <ele>1759.3500976562</ele>
        <time>2015-03-20T12:16:33Z</time>
      </trkpt>
      <trkpt lat="42.81631" lon="-0.422">
        <ele>1755.5046386719</ele>
        <time>2015-03-20T12:16:47Z</time>
      </trkpt>
      <trkpt lat="42.81616" lon="-0.42178">
        <ele>1753.1013183594</ele>
        <time>2015-03-20T12:17:06Z</time>
      </trkpt>
      <trkpt lat="42.81602" lon="-0.42154">
        <ele>1751.1787109375</ele>
        <time>2015-03-20T12:17:26Z</time>
      </trkpt>
      <trkpt lat="42.81586" lon="-0.42134">
        <ele>1749.7368164062</ele>
        <time>2015-03-20T12:17:44Z</time>
      </trkpt>
      <trkpt lat="42.8157" lon="-0.42113">
        <ele>1746.8527832031</ele>
        <time>2015-03-20T12:18:03Z</time>
      </trkpt>
      <trkpt lat="42.81552" lon="-0.42096">
        <ele>1744.9301757812</ele>
        <time>2015-03-20T12:18:22Z</time>
      </trkpt>
      <trkpt lat="42.81546" lon="-0.42081">
        <ele>1743.0075683594</ele>
        <time>2015-03-20T12:18:37Z</time>
      </trkpt>
      <trkpt lat="42.81538" lon="-0.42072">
        <ele>1740.6042480469</ele>
        <time>2015-03-20T12:18:50Z</time>
      </trkpt>
      <trkpt lat="42.81536" lon="-0.42068">
        <ele>1741.0849609375</ele>
        <time>2015-03-20T12:19:06Z</time>
      </trkpt>
      <trkpt lat="42.8152" lon="-0.42052">
        <ele>1740.6042480469</ele>
        <time>2015-03-20T12:19:26Z</time>
      </trkpt>
      <trkpt lat="42.8151" lon="-0.4204">
        <ele>1737.7202148438</ele>
        <time>2015-03-20T12:19:42Z</time>
      </trkpt>
      <trkpt lat="42.81502" lon="-0.42048">
        <ele>1734.3557128906</ele>
        <time>2015-03-20T12:19:56Z</time>
      </trkpt>
      <trkpt lat="42.81498" lon="-0.42051">
        <ele>1732.4331054688</ele>
        <time>2015-03-20T12:20:01Z</time>
      </trkpt>
      <trkpt lat="42.81496" lon="-0.42054">
        <ele>1731.9523925781</ele>
        <time>2015-03-20T12:20:06Z</time>
      </trkpt>
      <trkpt lat="42.81485" lon="-0.4207">
        <ele>1728.587890625</ele>
        <time>2015-03-20T12:20:22Z</time>
      </trkpt>
      <trkpt lat="42.81471" lon="-0.42092">
        <ele>1725.7038574219</ele>
        <time>2015-03-20T12:20:41Z</time>
      </trkpt>
      <trkpt lat="42.81453" lon="-0.42108">
        <ele>1723.3005371094</ele>
        <time>2015-03-20T12:21:00Z</time>
      </trkpt>
      <trkpt lat="42.81435" lon="-0.42107">
        <ele>1723.3005371094</ele>
        <time>2015-03-20T12:21:16Z</time>
      </trkpt>
      <trkpt lat="42.81432" lon="-0.42107">
        <ele>1722.3391113281</ele>
        <time>2015-03-20T12:21:19Z</time>
      </trkpt>
      <trkpt lat="42.81416" lon="-0.42124">
        <ele>1724.2619628906</ele>
        <time>2015-03-20T12:21:37Z</time>
      </trkpt>
      <trkpt lat="42.81414" lon="-0.42126">
        <ele>1724.2619628906</ele>
        <time>2015-03-20T12:21:39Z</time>
      </trkpt>
      <trkpt lat="42.81409" lon="-0.42125">
        <ele>1723.7810058594</ele>
        <time>2015-03-20T12:21:43Z</time>
      </trkpt>
      <trkpt lat="42.8139" lon="-0.42105">
        <ele>1724.7426757812</ele>
        <time>2015-03-20T12:22:04Z</time>
      </trkpt>
      <trkpt lat="42.81382" lon="-0.42085">
        <ele>1722.3391113281</ele>
        <time>2015-03-20T12:22:21Z</time>
      </trkpt>
      <trkpt lat="42.81383" lon="-0.42079">
        <ele>1721.8583984375</ele>
        <time>2015-03-20T12:22:25Z</time>
      </trkpt>
      <trkpt lat="42.81392" lon="-0.42057">
        <ele>1722.3391113281</ele>
        <time>2015-03-20T12:22:42Z</time>
      </trkpt>
      <trkpt lat="42.81393" lon="-0.42034">
        <ele>1723.3005371094</ele>
        <time>2015-03-20T12:22:57Z</time>
      </trkpt>
      <trkpt lat="42.81399" lon="-0.42017">
        <ele>1722.8198242188</ele>
        <time>2015-03-20T12:23:09Z</time>
      </trkpt>
      <trkpt lat="42.81405" lon="-0.42002">
        <ele>1722.8198242188</ele>
        <time>2015-03-20T12:23:26Z</time>
      </trkpt>
      <trkpt lat="42.81414" lon="-0.41982">
        <ele>1722.8198242188</ele>
        <time>2015-03-20T12:23:43Z</time>
      </trkpt>
      <trkpt lat="42.81423" lon="-0.41961">
        <ele>1723.3005371094</ele>
        <time>2015-03-20T12:24:00Z</time>
      </trkpt>
      <trkpt lat="42.8143" lon="-0.41937">
        <ele>1722.3391113281</ele>
        <time>2015-03-20T12:24:17Z</time>
      </trkpt>
      <trkpt lat="42.81433" lon="-0.41932">
        <ele>1721.8583984375</ele>
        <time>2015-03-20T12:24:21Z</time>
      </trkpt>
      <trkpt lat="42.81447" lon="-0.41907">
        <ele>1721.8583984375</ele>
        <time>2015-03-20T12:24:41Z</time>
      </trkpt>
      <trkpt lat="42.8146" lon="-0.41891">
        <ele>1721.8583984375</ele>
        <time>2015-03-20T12:24:59Z</time>
      </trkpt>
      <trkpt lat="42.81463" lon="-0.41888">
        <ele>1722.8198242188</ele>
        <time>2015-03-20T12:25:03Z</time>
      </trkpt>
      <trkpt lat="42.81477" lon="-0.41874">
        <ele>1724.7426757812</ele>
        <time>2015-03-20T12:25:21Z</time>
      </trkpt>
      <trkpt lat="42.8149" lon="-0.41864">
        <ele>1727.6264648438</ele>
        <time>2015-03-20T12:25:39Z</time>
      </trkpt>
      <trkpt lat="42.81506" lon="-0.41847">
        <ele>1729.5490722656</ele>
        <time>2015-03-20T12:26:01Z</time>
      </trkpt>
      <trkpt lat="42.8152" lon="-0.41828">
        <ele>1730.9912109375</ele>
        <time>2015-03-20T12:26:21Z</time>
      </trkpt>
      <trkpt lat="42.81529" lon="-0.41809">
        <ele>1731.4716796875</ele>
        <time>2015-03-20T12:26:37Z</time>
      </trkpt>
      <trkpt lat="42.81534" lon="-0.41804">
        <ele>1730.5104980469</ele>
        <time>2015-03-20T12:26:53Z</time>
      </trkpt>
      <trkpt lat="42.81534" lon="-0.41802">
        <ele>1730.5104980469</ele>
        <time>2015-03-20T12:27:15Z</time>
      </trkpt>
      <trkpt lat="42.81534" lon="-0.41802">
        <ele>1730.9912109375</ele>
        <time>2015-03-20T12:27:16Z</time>
      </trkpt>
      <trkpt lat="42.81532" lon="-0.418">
        <ele>1730.5104980469</ele>
        <time>2015-03-20T12:27:22Z</time>
      </trkpt>
      <trkpt lat="42.81532" lon="-0.41795">
        <ele>1730.9912109375</ele>
        <time>2015-03-20T12:27:26Z</time>
      </trkpt>
      <trkpt lat="42.81545" lon="-0.41773">
        <ele>1728.587890625</ele>
        <time>2015-03-20T12:27:45Z</time>
      </trkpt>
      <trkpt lat="42.81552" lon="-0.41753">
        <ele>1727.6264648438</ele>
        <time>2015-03-20T12:28:02Z</time>
      </trkpt>
      <trkpt lat="42.81553" lon="-0.41752">
        <ele>1728.1071777344</ele>
        <time>2015-03-20T12:28:21Z</time>
      </trkpt>
      <trkpt lat="42.81553" lon="-0.41749">
        <ele>1727.6264648438</ele>
        <time>2015-03-20T12:28:37Z</time>
      </trkpt>
      <trkpt lat="42.81553" lon="-0.4175">
        <ele>1727.6264648438</ele>
        <time>2015-03-20T12:28:51Z</time>
      </trkpt>
      <trkpt lat="42.81553" lon="-0.4175">
        <ele>1728.587890625</ele>
        <time>2015-03-20T12:28:52Z</time>
      </trkpt>
    </trkseg>
  </trk>
</gpx>